Observation data for JA Ranch on 05/16/2018      Previous  Date  Next       Current Mesonet Observations  Soil Data  Daily Summary Page  Observations in Plain Language
KPD3 160500Z 31004KT 17/14 A2997 RMK A01 T01660135  RH  082%=      5-min Rain = 0
KPD3 160501Z 30005KT 17/14 A2998 RMK A01 T01650136  RH  082%=      5-min Rain = 0
KPD3 160502Z 30005KT 17/14 A2998 RMK A01 T01650135  RH  082%=      5-min Rain = 0
KPD3 160503Z 30005KT 16/14 A2998 RMK A01 T01640135  RH  083%=      5-min Rain = 0
KPD3 160504Z 31005KT 16/14 A2998 RMK A01 T01630135  RH  084%=      5-min Rain = 0
KPD3 160505Z 31005KT 16/14 A2998 RMK A01 T01620135  RH  084%=      5-min Rain = 0
KPD3 160506Z 31006KT 16/14 A2999 RMK A01 T01610135  RH  084%=      5-min Rain = 0
KPD3 160507Z 30007KT 16/14 A2999 RMK A01 T01600135  RH  085%=      5-min Rain = 0
KPD3 160508Z 29007KT 16/14 A2999 RMK A01 T01600135  RH  085%=      5-min Rain = 0
KPD3 160509Z 29008KT 16/14 A2999 RMK A01 T01600135  RH  085%=      5-min Rain = 0
KPD3 160510Z 29008KT 16/13 A2998 RMK A01 T01590134  RH  085%=      5-min Rain = 0
KPD3 160511Z 29007KT 16/13 A2998 RMK A01 T01590134  RH  085%=      5-min Rain = 0
KPD3 160512Z 29007KT 16/13 A2999 RMK A01 T01590134  RH  085%=      5-min Rain = 0
KPD3 160513Z 29006KT 16/13 A2999 RMK A01 T01600134  RH  085%=      5-min Rain = 0
KPD3 160514Z 29006KT 16/13 A2999 RMK A01 T01600134  RH  084%=      5-min Rain = 0
KPD3 160515Z 29006KT 16/13 A2999 RMK A01 T01600133  RH  084%=      5-min Rain = 0
KPD3 160516Z 29006KT 16/13 A30 RMK A01 T01600134  RH  084%=      5-min Rain = 0
KPD3 160517Z 28006KT 16/13 A30 RMK A01 T01600134  RH  084%=      5-min Rain = 0
KPD3 160518Z 27006KT 16/13 A30 RMK A01 T01600134  RH  085%=      5-min Rain = 0
KPD3 160519Z 26007KT 16/13 A30 RMK A01 T01590134  RH  085%=      5-min Rain = 0
KPD3 160520Z 25007KT 16/13 A2999 RMK A01 T01580133  RH  085%=      5-min Rain = 0
KPD3 160521Z 26007KT 16/13 A2999 RMK A01 T01580133  RH  085%=      5-min Rain = 0
KPD3 160522Z 26007KT 16/13 A2999 RMK A01 T01580133  RH  085%=      5-min Rain = 0
KPD3 160523Z 26006KT 16/13 A2999 RMK A01 T01590133  RH  085%=      5-min Rain = 0
KPD3 160524Z 27006KT 16/13 A2999 RMK A01 T01590134  RH  085%=      5-min Rain = 0
KPD3 160525Z 28006KT 16/13 A2999 RMK A01 T01590134  RH  085%=      5-min Rain = 0
KPD3 160526Z 29006KT 16/13 A2999 RMK A01 T01590134  RH  085%=      5-min Rain = 0
KPD3 160527Z 30006KT 16/13 A2999 RMK A01 T01590133  RH  085%=      5-min Rain = 0
KPD3 160528Z 29007KT 16/13 A2999 RMK A01 T01590133  RH  084%=      5-min Rain = 0
KPD3 160529Z 29008KT 16/13 A2999 RMK A01 T01590132  RH  084%=      5-min Rain = 0
KPD3 160530Z 29007KT 16/13 A2999 RMK A01 T01600133  RH  084%=      5-min Rain = 0
KPD3 160531Z 28007KT 16/13 A2998 RMK A01 T01610133  RH  083%=      5-min Rain = 0
KPD3 160532Z 27005KT 16/13 A2998 RMK A01 T01610133  RH  084%=      5-min Rain = 0
KPD3 160533Z 27005KT 16/13 A2998 RMK A01 T01600133  RH  084%=      5-min Rain = 0
KPD3 160534Z 28006KT 16/13 A2997 RMK A01 T01590132  RH  084%=      5-min Rain = 0
KPD3 160535Z 29006KT 16/13 A2997 RMK A01 T01590132  RH  084%=      5-min Rain = 0
KPD3 160536Z 28007KT 16/13 A2997 RMK A01 T01570132  RH  085%=      5-min Rain = 0
KPD3 160537Z 28007KT 16/13 A2997 RMK A01 T01570132  RH  085%=      5-min Rain = 0
KPD3 160538Z 28008KT 16/13 A2997 RMK A01 T01580132  RH  084%=      5-min Rain = 0
KPD3 160539Z 28009KT 16/13 A2997 RMK A01 T01600131  RH  083%=      5-min Rain = 0
KPD3 160540Z 29008KT 16/13 A2997 RMK A01 T01600131  RH  083%=      5-min Rain = 0
KPD3 160541Z 29009KT 16/13 A2997 RMK A01 T01600131  RH  083%=      5-min Rain = 0
KPD3 160542Z 30008KT 16/13 A2997 RMK A01 T01590130  RH  083%=      5-min Rain = 0
KPD3 160543Z 30008KT 16/13 A2997 RMK A01 T01590129  RH  082%=      5-min Rain = 0
KPD3 160544Z 31008KT 16/13 A2997 RMK A01 T01590129  RH  082%=      5-min Rain = 0
KPD3 160545Z 31008KT 16/13 A2997 RMK A01 T01590128  RH  082%=      5-min Rain = 0
KPD3 160546Z 31009KT 16/13 A2997 RMK A01 T01590128  RH  082%=      5-min Rain = 0
KPD3 160547Z 31008KT 16/13 A2997 RMK A01 T01590127  RH  082%=      5-min Rain = 0
KPD3 160548Z 32007KT 16/13 A2997 RMK A01 T01590127  RH  081%=      5-min Rain = 0
KPD3 160549Z 31006KT 16/13 A2997 RMK A01 T01590127  RH  081%=      5-min Rain = 0
KPD3 160550Z 30006KT 16/13 A2998 RMK A01 T01590127  RH  081%=      5-min Rain = 0
KPD3 160551Z 29004KT 16/13 A2998 RMK A01 T01590127  RH  081%=      5-min Rain = 0
KPD3 160552Z 29004KT 16/13 A2998 RMK A01 T01590126  RH  081%=      5-min Rain = 0
KPD3 160553Z 29002KT 16/13 A2998 RMK A01 T01590125  RH  080%=      5-min Rain = 0
KPD3 160554Z 22001KT 16/13 A2999 RMK A01 T01590125  RH  080%=      5-min Rain = 0
KPD3 160555Z 17006G11KT 16/12 A2999 RMK A01 T01570123  RH  081%=      5-min Rain = 0
KPD3 160556Z 17015KT 15/12 A3001 RMK A01 T01530124  RH  083%=      5-min Rain = 0
KPD3 160557Z 19016G22KT 15/13 A3001 RMK A01 T01510127  RH  085%=      5-min Rain = 0
KPD3 160558Z 19015KT 15/13 A3001 RMK A01 T01540133  RH  087%=      5-min Rain = 0
KPD3 160559Z 19014KT 16/14 A3001 RMK A01 T01590136  RH  086%=      5-min Rain = 0
KPD3 160600Z 21009KT 16/14 A3001 RMK A01 T01620137  RH  085%=      5-min Rain = 0
KPD3 160601Z 23006KT 16/14 A3001 RMK A01 T01640136  RH  084%=      5-min Rain = 0
KPD3 160602Z 24006KT 16/14 A3001 RMK A01 T01640136  RH  083%=      5-min Rain = 0
KPD3 160603Z 24008KT 16/14 A3001 RMK A01 T01640136  RH  083%=      5-min Rain = 0
KPD3 160604Z 22010KT 16/14 A3002 RMK A01 T01630135  RH  084%=      5-min Rain = 0
KPD3 160605Z 21012KT 16/14 A3002 RMK A01 T01620135  RH  084%=      5-min Rain = 0
KPD3 160606Z 21013KT 16/14 A3002 RMK A01 T01610136  RH  085%=      5-min Rain = 0
KPD3 160607Z 21013KT 16/14 A3002 RMK A01 T01610137  RH  086%=      5-min Rain = 0
KPD3 160608Z 21013KT 16/14 A3002 RMK A01 T01610137  RH  086%=      5-min Rain = 0
KPD3 160609Z 21015KT 16/14 A3002 RMK A01 T01600137  RH  086%=      5-min Rain = 0
KPD3 160610Z 22013KT 16/14 A3001 RMK A01 T01610138  RH  086%=      5-min Rain = 0
KPD3 160611Z 22013KT 16/14 A3001 RMK A01 T01620137  RH  085%=      5-min Rain = 0
KPD3 160612Z 23011KT 16/14 A3001 RMK A01 T01630137  RH  085%=      5-min Rain = 0
KPD3 160613Z 23011KT 16/14 A3001 RMK A01 T01630138  RH  085%=      5-min Rain = 0
KPD3 160614Z 23010KT 16/14 A3001 RMK A01 T01630137  RH  085%=      5-min Rain = 0
KPD3 160615Z 23009KT 16/14 A3001 RMK A01 T01630137  RH  084%=      5-min Rain = 0
KPD3 160616Z 22009KT 16/14 A3001 RMK A01 T01640137  RH  084%=      5-min Rain = 0
KPD3 160617Z 22008KT 16/14 A3001 RMK A01 T01640137  RH  084%=      5-min Rain = 0
KPD3 160618Z 23007KT 16/14 A3001 RMK A01 T01630136  RH  084%=      5-min Rain = 0
KPD3 160619Z 23006KT 16/14 A3001 RMK A01 T01620136  RH  084%=      5-min Rain = 0
KPD3 160620Z 24006KT 16/14 A3001 RMK A01 T01630136  RH  084%=      5-min Rain = 0
KPD3 160621Z 25006KT 16/14 A3001 RMK A01 T01620135  RH  084%=      5-min Rain = 0
KPD3 160622Z 25007KT 16/14 A3001 RMK A01 T01620135  RH  084%=      5-min Rain = 0
KPD3 160623Z 25008KT 16/14 A3001 RMK A01 T01620135  RH  084%=      5-min Rain = 0
KPD3 160624Z 24008KT 16/14 A3002 RMK A01 T01620135  RH  084%=      5-min Rain = 0
KPD3 160625Z 24007KT 16/13 A3002 RMK A01 T01620134  RH  084%=      5-min Rain = 0
KPD3 160626Z 25006KT 16/13 A3002 RMK A01 T01620134  RH  084%=      5-min Rain = 0
KPD3 160627Z 27005KT 16/13 A3002 RMK A01 T01610134  RH  084%=      5-min Rain = 0
KPD3 160628Z 28005KT 16/13 A3002 RMK A01 T01610133  RH  084%=      5-min Rain = 0
KPD3 160629Z 27005KT 16/13 A3002 RMK A01 T01600133  RH  084%=      5-min Rain = 0
KPD3 160630Z 27005KT 16/13 A3003 RMK A01 T01600132  RH  084%=      5-min Rain = 0
KPD3 160631Z 28004KT 16/13 A3003 RMK A01 T01600132  RH  084%=      5-min Rain = 0
KPD3 160632Z 31003KT 16/13 A3003 RMK A01 T01590132  RH  084%=      5-min Rain = 0
KPD3 160633Z 34004KT 16/13 A3003 RMK A01 T01590132  RH  084%=      5-min Rain = 0
KPD3 160634Z 36005KT 16/13 A3003 RMK A01 T01580131  RH  084%=      5-min Rain = 0
KPD3 160635Z 01007KT 16/13 A3003 RMK A01 T01560131  RH  085%=      5-min Rain = 0
KPD3 160636Z 02007KT 15/13 A3003 RMK A01 T01540131  RH  086%=      5-min Rain = 0
KPD3 160637Z 02008KT 15/13 A3004 RMK A01 T01530131  RH  087%=      5-min Rain = 0
KPD3 160638Z 03008KT 15/13 A3004 RMK A01 T01530132  RH  088%=      5-min Rain = 0
KPD3 160639Z 03008KT 15/13 A3004 RMK A01 T01520133  RH  088%=      5-min Rain = 0
KPD3 160640Z 03008KT 15/14 A3004 RMK A01 T01530135  RH  089%=      5-min Rain = 0
KPD3 160641Z 02010KT 16/14 A3004 RMK A01 T01550136  RH  088%=      5-min Rain = 0
KPD3 160642Z 03012KT 16/14 A3004 RMK A01 T01560135  RH  088%=      5-min Rain = 0
KPD3 160643Z 02011KT 16/14 A3004 RMK A01 T01570135  RH  087%=      5-min Rain = 0
KPD3 160644Z 02011KT 16/14 A3004 RMK A01 T01590136  RH  086%=      5-min Rain = 0
KPD3 160645Z 02012KT 16/14 A3004 RMK A01 T01590135  RH  086%=      5-min Rain = 0
KPD3 160646Z 03011KT 16/14 A3004 RMK A01 T01600136  RH  086%=      5-min Rain = 0
KPD3 160647Z 03010KT 16/14 A3003 RMK A01 T01590136  RH  086%=      5-min Rain = 0
KPD3 160648Z 03009KT 16/14 A3004 RMK A01 T01590136  RH  086%=      5-min Rain = 0
KPD3 160649Z 03009KT 16/14 A3004 RMK A01 T01590136  RH  086%=      5-min Rain = 0
KPD3 160650Z 02009KT 16/14 A3004 RMK A01 T01590136  RH  086%=      5-min Rain = 0
KPD3 160651Z 02008KT 16/14 A3004 RMK A01 T01580136  RH  087%=      5-min Rain = 0
KPD3 160652Z 02008KT 16/14 A3004 RMK A01 T01570136  RH  087%=      5-min Rain = 0
KPD3 160653Z 02007KT 16/14 A3004 RMK A01 T01570136  RH  088%=      5-min Rain = 0
KPD3 160654Z 02007KT 16/14 A3004 RMK A01 T01560136  RH  088%=      5-min Rain = 0
KPD3 160655Z 03007KT 16/14 A3003 RMK A01 T01560136  RH  088%=      5-min Rain = 0
KPD3 160656Z 03006KT 16/14 A3003 RMK A01 T01550136  RH  088%=      5-min Rain = 0
KPD3 160657Z 03006KT 16/14 A3003 RMK A01 T01550136  RH  088%=      5-min Rain = 0
KPD3 160658Z 02006KT 16/14 A3003 RMK A01 T01560136  RH  088%=      5-min Rain = 0
KPD3 160659Z 02005KT 16/14 A3003 RMK A01 T01550136  RH  088%=      5-min Rain = 0
KPD3 160700Z 01005KT 16/14 A3003 RMK A01 T01550135  RH  088%=      5-min Rain = 0
KPD3 160701Z 00003KT 16/14 A3003 RMK A01 T01560135  RH  087%=      5-min Rain = 0
KPD3 160702Z 35003KT 16/13 A3003 RMK A01 T01560134  RH  087%=      5-min Rain = 0
KPD3 160703Z 35004KT 16/13 A3003 RMK A01 T01560134  RH  087%=      5-min Rain = 0
KPD3 160704Z 01005KT 16/13 A3003 RMK A01 T01550134  RH  087%=      5-min Rain = 0
KPD3 160705Z 00004KT 16/13 A3003 RMK A01 T01550133  RH  086%=      5-min Rain = 0
KPD3 160706Z 35004KT 16/13 A3003 RMK A01 T01560133  RH  086%=      5-min Rain = 0
KPD3 160707Z 35004KT 16/13 A3003 RMK A01 T01570133  RH  086%=      5-min Rain = 0
KPD3 160708Z 35004KT 16/13 A3003 RMK A01 T01570132  RH  085%=      5-min Rain = 0
KPD3 160709Z 35005KT 16/13 A3003 RMK A01 T01560132  RH  085%=      5-min Rain = 0
KPD3 160710Z 34005KT 16/13 A3003 RMK A01 T01560131  RH  085%=      5-min Rain = 0
KPD3 160711Z 31005KT 16/13 A3003 RMK A01 T01550131  RH  086%=      5-min Rain = 0
KPD3 160712Z 30005KT 15/13 A3003 RMK A01 T01540131  RH  086%=      5-min Rain = 0
KPD3 160713Z 30005KT 15/13 A3003 RMK A01 T01540131  RH  086%=      5-min Rain = 0
KPD3 160714Z 31005KT 15/13 A3003 RMK A01 T01520129  RH  086%=      5-min Rain = 0
KPD3 160715Z 31006KT 15/13 A3003 RMK A01 T01510129  RH  087%=      5-min Rain = 0
KPD3 160716Z 33006KT 15/13 A3003 RMK A01 T01510129  RH  086%=      5-min Rain = 0
KPD3 160717Z 32005KT 15/13 A3003 RMK A01 T01520129  RH  086%=      5-min Rain = 0
KPD3 160718Z 32005KT 15/13 A3003 RMK A01 T01530129  RH  086%=      5-min Rain = 0
KPD3 160719Z 33005KT 15/13 A3003 RMK A01 T01520129  RH  086%=      5-min Rain = 0
KPD3 160720Z 34007KT 15/13 A3003 RMK A01 T01520128  RH  086%=      5-min Rain = 0
KPD3 160721Z 34006KT 15/13 A3003 RMK A01 T01520128  RH  086%=      5-min Rain = 0
KPD3 160722Z 34005KT 16/13 A3003 RMK A01 T01550128  RH  084%=      5-min Rain = 0
KPD3 160723Z 34004KT 16/13 A3003 RMK A01 T01560129  RH  084%=      5-min Rain = 0
KPD3 160724Z 35004KT 16/13 A3004 RMK A01 T01560130  RH  084%=      5-min Rain = 0
KPD3 160725Z 35003KT 16/13 A3004 RMK A01 T01560130  RH  084%=      5-min Rain = 0
KPD3 160726Z 00001KT 16/13 A3004 RMK A01 T01570129  RH  084%=      5-min Rain = 0
KPD3 160727Z 03002KT 16/13 A3004 RMK A01 T01560129  RH  084%=      5-min Rain = 0
KPD3 160728Z 03004KT 16/13 A3004 RMK A01 T01560128  RH  083%=      5-min Rain = 0
KPD3 160729Z 03005KT 16/13 A3004 RMK A01 T01570128  RH  083%=      5-min Rain = 0
KPD3 160730Z 03006KT 16/13 A3004 RMK A01 T01570128  RH  083%=      5-min Rain = 0
KPD3 160731Z 03006KT 16/13 A3004 RMK A01 T01570129  RH  083%=      5-min Rain = 0
KPD3 160732Z 03005KT 16/13 A3004 RMK A01 T01570130  RH  084%=      5-min Rain = 0
KPD3 160733Z 03004KT 16/13 A3004 RMK A01 T01560130  RH  084%=      5-min Rain = 0
KPD3 160734Z 03003KT 16/13 A3004 RMK A01 T01550129  RH  084%=      5-min Rain = 0
KPD3 160735Z 03004KT 16/13 A3004 RMK A01 T01550129  RH  084%=      5-min Rain = 0
KPD3 160736Z 02004KT 16/13 A3004 RMK A01 T01550129  RH  084%=      5-min Rain = 0
KPD3 160737Z 03005KT 16/13 A3004 RMK A01 T01560129  RH  084%=      5-min Rain = 0
KPD3 160738Z 03007KT 16/13 A3004 RMK A01 T01550129  RH  084%=      5-min Rain = 0
KPD3 160739Z 02007KT 15/13 A3004 RMK A01 T01540130  RH  085%=      5-min Rain = 0
KPD3 160740Z 02007KT 15/13 A3004 RMK A01 T01540130  RH  085%=      5-min Rain = 0
KPD3 160741Z 01007KT 15/13 A3004 RMK A01 T01540130  RH  085%=      5-min Rain = 0
KPD3 160742Z 01007KT 15/13 A3004 RMK A01 T01540130  RH  085%=      5-min Rain = 0
KPD3 160743Z 00007KT 16/13 A3004 RMK A01 T01550130  RH  085%=      5-min Rain = 0
KPD3 160744Z 36006KT 16/13 A3004 RMK A01 T01550130  RH  085%=      5-min Rain = 0
KPD3 160745Z 36006KT 16/13 A3004 RMK A01 T01550130  RH  085%=      5-min Rain = 0
KPD3 160746Z 35006KT 16/13 A3004 RMK A01 T01560130  RH  085%=      5-min Rain = 0
KPD3 160747Z 34005KT 16/13 A3004 RMK A01 T01560130  RH  085%=      5-min Rain = 0
KPD3 160748Z 34005KT 16/13 A3004 RMK A01 T01560130  RH  085%=      5-min Rain = 0
KPD3 160749Z 33005KT 16/13 A3004 RMK A01 T01550130  RH  085%=      5-min Rain = 0
KPD3 160750Z 32005KT 16/13 A3004 RMK A01 T01550131  RH  085%=      5-min Rain = 0
KPD3 160751Z 33006KT 15/13 A3004 RMK A01 T01540131  RH  086%=      5-min Rain = 0
KPD3 160752Z 33007KT 15/13 A3004 RMK A01 T01540130  RH  086%=      5-min Rain = 0
KPD3 160753Z 34007KT 15/13 A3004 RMK A01 T01530129  RH  085%=      5-min Rain = 0
KPD3 160754Z 34007KT 15/13 A3004 RMK A01 T01530129  RH  086%=      5-min Rain = 0
KPD3 160755Z 34007KT 15/13 A3004 RMK A01 T01530129  RH  086%=      5-min Rain = 0
KPD3 160756Z 34007KT 15/13 A3004 RMK A01 T01530130  RH  086%=      5-min Rain = 0
KPD3 160757Z 35008KT 15/13 A3004 RMK A01 T01530129  RH  085%=      5-min Rain = 0
KPD3 160758Z 34008KT 15/13 A3004 RMK A01 T01540129  RH  085%=      5-min Rain = 0
KPD3 160759Z 35007KT 16/13 A3004 RMK A01 T01560128  RH  084%=      5-min Rain = 0
KPD3 160800Z 34007KT 16/13 A3004 RMK A01 T01570128  RH  083%=      5-min Rain = 0
KPD3 160801Z 34008KT 16/13 A3004 RMK A01 T01590128  RH  082%=      5-min Rain = 0
KPD3 160802Z 34007KT 16/13 A3004 RMK A01 T01600127  RH  081%=      5-min Rain = 0
KPD3 160803Z 34007KT 16/13 A3004 RMK A01 T01620128  RH  080%=      5-min Rain = 0
KPD3 160804Z 34006KT 16/13 A3004 RMK A01 T01630127  RH  080%=      5-min Rain = 0
KPD3 160805Z 33005KT 16/13 A3004 RMK A01 T01630127  RH  079%=      5-min Rain = 0
KPD3 160806Z 32005KT 16/13 A3004 RMK A01 T01630128  RH  080%=      5-min Rain = 0
KPD3 160807Z 32005KT 16/13 A3004 RMK A01 T01620127  RH  080%=      5-min Rain = 0
KPD3 160808Z 32006KT 16/13 A3003 RMK A01 T01610127  RH  080%=      5-min Rain = 0
KPD3 160809Z 32006KT 16/13 A3003 RMK A01 T01610126  RH  080%=      5-min Rain = 0
KPD3 160810Z 32005KT 16/13 A3003 RMK A01 T01610126  RH  080%=      5-min Rain = 0
KPD3 160811Z 33005KT 16/13 A3003 RMK A01 T01610125  RH  079%=      5-min Rain = 0
KPD3 160812Z 32005KT 16/13 A3003 RMK A01 T01620125  RH  078%=      5-min Rain = 0
KPD3 160813Z 32005KT 16/13 A3003 RMK A01 T01630125  RH  078%=      5-min Rain = 0
KPD3 160814Z 32005KT 16/13 A3003 RMK A01 T01630125  RH  078%=      5-min Rain = 0
KPD3 160815Z 31005KT 16/13 A3003 RMK A01 T01620125  RH  079%=      5-min Rain = 0
KPD3 160816Z 31006KT 16/13 A3003 RMK A01 T01610126  RH  080%=      5-min Rain = 0
KPD3 160817Z 31006KT 16/13 A3003 RMK A01 T01590125  RH  080%=      5-min Rain = 0
KPD3 160818Z 32006KT 16/13 A3003 RMK A01 T01590126  RH  081%=      5-min Rain = 0
KPD3 160819Z 30006KT 16/13 A3003 RMK A01 T01580126  RH  081%=      5-min Rain = 0
KPD3 160820Z 31007KT 16/13 A3003 RMK A01 T01570125  RH  082%=      5-min Rain = 0
KPD3 160821Z 32007KT 16/13 A3003 RMK A01 T01560125  RH  082%=      5-min Rain = 0
KPD3 160822Z 32006KT 16/13 A3003 RMK A01 T01550125  RH  082%=      5-min Rain = 0
KPD3 160823Z 32006KT 16/13 A3003 RMK A01 T01550125  RH  082%=      5-min Rain = 0
KPD3 160824Z 33006KT 15/12 A3003 RMK A01 T01540124  RH  082%=      5-min Rain = 0
KPD3 160825Z 34005KT 15/12 A3003 RMK A01 T01540124  RH  083%=      5-min Rain = 0
KPD3 160826Z 34005KT 15/12 A3003 RMK A01 T01540124  RH  083%=      5-min Rain = 0
KPD3 160827Z 34005KT 15/12 A3003 RMK A01 T01530124  RH  083%=      5-min Rain = 0
KPD3 160828Z 34006KT 15/12 A3003 RMK A01 T01530124  RH  083%=      5-min Rain = 0
KPD3 160829Z 34006KT 15/12 A3004 RMK A01 T01540124  RH  082%=      5-min Rain = 0
KPD3 160830Z 34007KT 15/12 A3004 RMK A01 T01540124  RH  082%=      5-min Rain = 0
KPD3 160831Z 34007KT 15/12 A3003 RMK A01 T01540124  RH  082%=      5-min Rain = 0
KPD3 160832Z 35008KT 15/13 A3003 RMK A01 T01540125  RH  082%=      5-min Rain = 0
KPD3 160833Z 01007KT 15/13 A3003 RMK A01 T01540125  RH  082%=      5-min Rain = 0
KPD3 160834Z 04008KT 15/13 A3003 RMK A01 T01540125  RH  083%=      5-min Rain = 0
KPD3 160835Z 02006KT 15/12 A3003 RMK A01 T01540124  RH  082%=      5-min Rain = 0
KPD3 160836Z 36005KT 16/12 A3003 RMK A01 T01550124  RH  082%=      5-min Rain = 0
KPD3 160837Z 36004KT 16/12 A3003 RMK A01 T01570124  RH  081%=      5-min Rain = 0
KPD3 160838Z 35005KT 16/12 A3003 RMK A01 T01570124  RH  081%=      5-min Rain = 0
KPD3 160839Z 34005KT 16/12 A3003 RMK A01 T01570124  RH  080%=      5-min Rain = 0
KPD3 160840Z 33005KT 16/12 A3003 RMK A01 T01570123  RH  080%=      5-min Rain = 0
KPD3 160841Z 32005KT 16/12 A3003 RMK A01 T01560123  RH  081%=      5-min Rain = 0
KPD3 160842Z 31004KT 16/12 A3003 RMK A01 T01550123  RH  082%=      5-min Rain = 0
KPD3 160843Z 31004KT 15/12 A3003 RMK A01 T01530122  RH  082%=      5-min Rain = 0
KPD3 160844Z 32004KT 15/12 A3003 RMK A01 T01510121  RH  082%=      5-min Rain = 0
KPD3 160845Z 32004KT 15/12 A3003 RMK A01 T01510121  RH  082%=      5-min Rain = 0
KPD3 160846Z 33004KT 15/12 A3003 RMK A01 T01500120  RH  082%=      5-min Rain = 0
KPD3 160847Z 33004KT 15/12 A3003 RMK A01 T01500120  RH  083%=      5-min Rain = 0
KPD3 160848Z 35004KT 15/12 A3003 RMK A01 T01500120  RH  082%=      5-min Rain = 0
KPD3 160849Z 36004KT 15/12 A3003 RMK A01 T01500119  RH  082%=      5-min Rain = 0
KPD3 160850Z 01004KT 15/12 A3003 RMK A01 T01510119  RH  081%=      5-min Rain = 0
KPD3 160851Z 02005KT 15/12 A3003 RMK A01 T01520119  RH  081%=      5-min Rain = 0
KPD3 160852Z 03005KT 15/12 A3003 RMK A01 T01510120  RH  082%=      5-min Rain = 0
KPD3 160853Z 02006KT 15/12 A3003 RMK A01 T01490120  RH  083%=      5-min Rain = 0
KPD3 160854Z 01007KT 15/12 A3003 RMK A01 T01480120  RH  083%=      5-min Rain = 0
KPD3 160855Z 01007KT 15/12 A3003 RMK A01 T01490119  RH  082%=      5-min Rain = 0
KPD3 160856Z 02007KT 15/12 A3003 RMK A01 T01530120  RH  081%=      5-min Rain = 0
KPD3 160857Z 02006KT 16/12 A3003 RMK A01 T01550121  RH  080%=      5-min Rain = 0
KPD3 160858Z 02005KT 16/12 A3003 RMK A01 T01560121  RH  079%=      5-min Rain = 0
KPD3 160859Z 01005KT 16/12 A3003 RMK A01 T01570121  RH  079%=      5-min Rain = 0
KPD3 160900Z 01005KT 16/12 A3003 RMK A01 T01580120  RH  078%=      5-min Rain = 0
KPD3 160901Z 00005KT 16/12 A3003 RMK A01 T01590120  RH  077%=      5-min Rain = 0
KPD3 160902Z 00005KT 16/12 A3003 RMK A01 T01600118  RH  076%=      5-min Rain = 0
KPD3 160903Z 35005KT 16/12 A3003 RMK A01 T01620119  RH  075%=      5-min Rain = 0
KPD3 160904Z 35005KT 16/12 A3003 RMK A01 T01630118  RH  075%=      5-min Rain = 0
KPD3 160905Z 34004KT 16/12 A3003 RMK A01 T01640117  RH  074%=      5-min Rain = 0
KPD3 160906Z 34003KT 16/12 A3003 RMK A01 T01640117  RH  074%=      5-min Rain = 0
KPD3 160907Z 32003KT 16/12 A3003 RMK A01 T01640117  RH  074%=      5-min Rain = 0
KPD3 160908Z 33004KT 16/12 A3003 RMK A01 T01640118  RH  074%=      5-min Rain = 0
KPD3 160909Z 33003KT 16/12 A3003 RMK A01 T01610118  RH  075%=      5-min Rain = 0
KPD3 160910Z 33003KT 16/12 A3003 RMK A01 T01590117  RH  076%=      5-min Rain = 0
KPD3 160911Z 34003KT 16/12 A3003 RMK A01 T01570117  RH  077%=      5-min Rain = 0
KPD3 160912Z 35004KT 16/12 A3003 RMK A01 T01560117  RH  078%=      5-min Rain = 0
KPD3 160913Z 35004KT 16/12 A3003 RMK A01 T01550117  RH  078%=      5-min Rain = 0
KPD3 160914Z 36003KT 15/12 A3003 RMK A01 T01530116  RH  079%=      5-min Rain = 0
KPD3 160915Z 01003KT 15/12 A3002 RMK A01 T01520117  RH  079%=      5-min Rain = 0
KPD3 160916Z 01003KT 15/12 A3002 RMK A01 T01510117  RH  080%=      5-min Rain = 0
KPD3 160917Z 00003KT 15/12 A3002 RMK A01 T01500117  RH  081%=      5-min Rain = 0
KPD3 160918Z 35004KT 15/12 A3002 RMK A01 T01490117  RH  081%=      5-min Rain = 0
KPD3 160919Z 35005KT 15/12 A3002 RMK A01 T01490117  RH  081%=      5-min Rain = 0
KPD3 160920Z 35005KT 15/12 A3002 RMK A01 T01490117  RH  081%=      5-min Rain = 0
KPD3 160921Z 35006KT 15/12 A3002 RMK A01 T01470116  RH  082%=      5-min Rain = 0
KPD3 160922Z 35005KT 15/12 A3002 RMK A01 T01460116  RH  082%=      5-min Rain = 0
KPD3 160923Z 35006KT 15/12 A3002 RMK A01 T01450116  RH  083%=      5-min Rain = 0
KPD3 160924Z 35005KT 15/12 A3002 RMK A01 T01460117  RH  083%=      5-min Rain = 0
KPD3 160925Z 35005KT 15/12 A3002 RMK A01 T01460116  RH  082%=      5-min Rain = 0
KPD3 160926Z 35005KT 15/12 A3002 RMK A01 T01470117  RH  082%=      5-min Rain = 0
KPD3 160927Z 35006KT 15/12 A3002 RMK A01 T01480116  RH  081%=      5-min Rain = 0
KPD3 160928Z 35006KT 15/12 A3002 RMK A01 T01480116  RH  081%=      5-min Rain = 0
KPD3 160929Z 35007KT 15/12 A3002 RMK A01 T01470116  RH  082%=      5-min Rain = 0
KPD3 160930Z 35007KT 15/12 A3002 RMK A01 T01450115  RH  082%=      5-min Rain = 0
KPD3 160931Z 35007KT 14/12 A3002 RMK A01 T01440115  RH  083%=      5-min Rain = 0
KPD3 160932Z 34006KT 14/12 A3002 RMK A01 T01430115  RH  083%=      5-min Rain = 0
KPD3 160933Z 34006KT 14/12 A3002 RMK A01 T01430116  RH  084%=      5-min Rain = 0
KPD3 160934Z 34005KT 14/12 A3002 RMK A01 T01430116  RH  084%=      5-min Rain = 0
KPD3 160935Z 34005KT 14/12 A3002 RMK A01 T01420115  RH  084%=      5-min Rain = 0
KPD3 160936Z 34005KT 14/12 A3002 RMK A01 T01430116  RH  084%=      5-min Rain = 0
KPD3 160937Z 34005KT 14/12 A3003 RMK A01 T01430116  RH  084%=      5-min Rain = 0
KPD3 160938Z 33006KT 14/12 A3003 RMK A01 T01430116  RH  084%=      5-min Rain = 0
KPD3 160939Z 33006KT 14/12 A3003 RMK A01 T01430116  RH  084%=      5-min Rain = 0
KPD3 160940Z 32005KT 14/12 A3003 RMK A01 T01420116  RH  084%=      5-min Rain = 0
KPD3 160941Z 33006KT 14/12 A3003 RMK A01 T01410115  RH  084%=      5-min Rain = 0
KPD3 160942Z 33006KT 14/11 A3003 RMK A01 T01390114  RH  085%=      5-min Rain = 0
KPD3 160943Z 33006KT 14/12 A3003 RMK A01 T01390115  RH  085%=      5-min Rain = 0
KPD3 160944Z 33006KT 14/12 A3003 RMK A01 T01380115  RH  086%=      5-min Rain = 0
KPD3 160945Z 33006KT 14/12 A3003 RMK A01 T01370115  RH  086%=      5-min Rain = 0
KPD3 160946Z 33007KT 14/12 A3003 RMK A01 T01370115  RH  087%=      5-min Rain = 0
KPD3 160947Z 33007KT 14/12 A3003 RMK A01 T01370116  RH  087%=      5-min Rain = 0
KPD3 160948Z 33006KT 14/12 A3003 RMK A01 T01370116  RH  087%=      5-min Rain = 0
KPD3 160949Z 33006KT 14/12 A3003 RMK A01 T01370116  RH  087%=      5-min Rain = 0
KPD3 160950Z 33006KT 14/12 A3003 RMK A01 T01370116  RH  087%=      5-min Rain = 0
KPD3 160951Z 33006KT 14/12 A3003 RMK A01 T01370116  RH  087%=      5-min Rain = 0
KPD3 160952Z 33006KT 14/12 A3003 RMK A01 T01370116  RH  088%=      5-min Rain = 0
KPD3 160953Z 33006KT 14/12 A3003 RMK A01 T01360116  RH  088%=      5-min Rain = 0
KPD3 160954Z 34006KT 14/12 A3003 RMK A01 T01350116  RH  088%=      5-min Rain = 0
KPD3 160955Z 34006KT 14/12 A3003 RMK A01 T01350116  RH  088%=      5-min Rain = 0
KPD3 160956Z 34006KT 14/12 A3003 RMK A01 T01350116  RH  088%=      5-min Rain = 0
KPD3 160957Z 35006KT 14/12 A3003 RMK A01 T01350117  RH  088%=      5-min Rain = 0
KPD3 160958Z 35007KT 14/12 A3003 RMK A01 T01360117  RH  088%=      5-min Rain = 0
KPD3 160959Z 35007KT 14/12 A3003 RMK A01 T01360118  RH  089%=      5-min Rain = 0
KPD3 161000Z 34007KT 14/12 A3003 RMK A01 T01360118  RH  089%=      5-min Rain = 0
KPD3 161001Z 34007KT 14/12 A3003 RMK A01 T01370119  RH  089%=      5-min Rain = 0
KPD3 161002Z 34008KT 14/12 A3003 RMK A01 T01370121  RH  090%=      5-min Rain = 0
KPD3 161003Z 33008KT 14/12 A3003 RMK A01 T01390123  RH  090%=      5-min Rain = 0
KPD3 161004Z 33008KT 14/13 A3003 RMK A01 T01400125  RH  091%=      5-min Rain = 0
KPD3 161005Z 33008KT 14/13 A3003 RMK A01 T01410126  RH  091%=      5-min Rain = 0
KPD3 161006Z 33008KT 14/13 A3003 RMK A01 T01420127  RH  090%=      5-min Rain = 0
KPD3 161007Z 33007KT 14/13 A3003 RMK A01 T01430127  RH  090%=      5-min Rain = 0
KPD3 161008Z 32007KT 14/13 A3003 RMK A01 T01430127  RH  090%=      5-min Rain = 0
KPD3 161009Z 32007KT 14/13 A3003 RMK A01 T01430127  RH  090%=      5-min Rain = 0
KPD3 161010Z 32007KT 14/13 A3003 RMK A01 T01430127  RH  090%=      5-min Rain = 0
KPD3 161011Z 32007KT 14/13 A3003 RMK A01 T01420127  RH  091%=      5-min Rain = 0
KPD3 161012Z 33007KT 14/13 A3003 RMK A01 T01420128  RH  091%=      5-min Rain = 0
KPD3 161013Z 33007KT 14/13 A3003 RMK A01 T01420128  RH  091%=      5-min Rain = 0
KPD3 161014Z 33007KT 14/13 A3003 RMK A01 T01420128  RH  092%=      5-min Rain = 0
KPD3 161015Z 33006KT 14/13 A3003 RMK A01 T01420129  RH  092%=      5-min Rain = 0
KPD3 161016Z 32007KT 14/13 A3003 RMK A01 T01410129  RH  092%=      5-min Rain = 0
KPD3 161017Z 32007KT 14/13 A3003 RMK A01 T01420130  RH  092%=      5-min Rain = 0
KPD3 161018Z 32007KT 14/13 A3003 RMK A01 T01420129  RH  092%=      5-min Rain = 0
KPD3 161019Z 32007KT 14/13 A3003 RMK A01 T01420130  RH  093%=      5-min Rain = 0
KPD3 161020Z 32007KT 14/13 A3002 RMK A01 T01420130  RH  093%=      5-min Rain = 0
KPD3 161021Z 31007KT 14/13 A3002 RMK A01 T01420131  RH  093%=      5-min Rain = 0
KPD3 161022Z 31006KT 14/13 A3002 RMK A01 T01420131  RH  093%=      5-min Rain = 0
KPD3 161023Z 31005KT 14/13 A3002 RMK A01 T01420132  RH  094%=      5-min Rain = 0
KPD3 161024Z 31005KT 14/13 A3002 RMK A01 T01430133  RH  094%=      5-min Rain = 0
KPD3 161025Z 30004KT 14/13 A3002 RMK A01 T01430132  RH  094%=      5-min Rain = 0
KPD3 161026Z 30004KT 14/13 A3002 RMK A01 T01430133  RH  094%=      5-min Rain = 0
KPD3 161027Z 30004KT 14/13 A3002 RMK A01 T01430132  RH  094%=      5-min Rain = 0
KPD3 161028Z 30003KT 14/13 A3002 RMK A01 T01420132  RH  093%=      5-min Rain = 0
KPD3 161029Z 30004KT 14/13 A3002 RMK A01 T01410130  RH  093%=      5-min Rain = 0
KPD3 161030Z 30004KT 14/13 A3002 RMK A01 T01410130  RH  093%=      5-min Rain = 0
KPD3 161031Z 30005KT 14/13 A3002 RMK A01 T01400129  RH  093%=      5-min Rain = 0
KPD3 161032Z 30005KT 14/13 A3002 RMK A01 T01380128  RH  093%=      5-min Rain = 0
KPD3 161033Z 30005KT 14/13 A3002 RMK A01 T01380128  RH  094%=      5-min Rain = 0
KPD3 161034Z 30004KT 14/13 A3002 RMK A01 T01370128  RH  094%=      5-min Rain = 0
KPD3 161035Z 30004KT 14/13 A3003 RMK A01 T01370129  RH  095%=      5-min Rain = 0
KPD3 161036Z 30004KT 14/13 A3003 RMK A01 T01370130  RH  095%=      5-min Rain = 0
KPD3 161037Z 29004KT 14/13 A3003 RMK A01 T01380131  RH  095%=      5-min Rain = 0
KPD3 161038Z 29004KT 14/13 A3003 RMK A01 T01380132  RH  096%=      5-min Rain = 0
KPD3 161039Z 29004KT 14/13 A3002 RMK A01 T01380131  RH  096%=      5-min Rain = 0
KPD3 161040Z 29004KT 14/13 A3002 RMK A01 T01390132  RH  095%=      5-min Rain = 0
KPD3 161041Z 29005KT 14/13 A3002 RMK A01 T01390132  RH  095%=      5-min Rain = 0
KPD3 161042Z 29005KT 14/13 A3002 RMK A01 T01390132  RH  096%=      5-min Rain = 0
KPD3 161043Z 30006KT 14/13 A3002 RMK A01 T01390132  RH  095%=      5-min Rain = 0
KPD3 161044Z 30006KT 14/13 A3002 RMK A01 T01380131  RH  095%=      5-min Rain = 0
KPD3 161045Z 31007KT 14/13 A3002 RMK A01 T01380131  RH  095%=      5-min Rain = 0
KPD3 161046Z 31007KT 14/13 A3002 RMK A01 T01380131  RH  096%=      5-min Rain = 0
KPD3 161047Z 31008KT 14/13 A3002 RMK A01 T01380132  RH  096%=      5-min Rain = 0
KPD3 161048Z 31008KT 14/13 A3002 RMK A01 T01380132  RH  096%=      5-min Rain = 0
KPD3 161049Z 31008KT 14/13 A3002 RMK A01 T01390134  RH  096%=      5-min Rain = 0
KPD3 161050Z 31008KT 14/14 A3002 RMK A01 T01400135  RH  096%=      5-min Rain = 0
KPD3 161051Z 31008KT 14/14 A3002 RMK A01 T01410135  RH  096%=      5-min Rain = 0
KPD3 161052Z 31007KT 14/14 A3002 RMK A01 T01410136  RH  096%=      5-min Rain = 0
KPD3 161053Z 31005KT 14/14 A3003 RMK A01 T01420136  RH  096%=      5-min Rain = 0
KPD3 161054Z 22002KT 14/14 A3003 RMK A01 T01410135  RH  096%=      5-min Rain = 0
KPD3 161055Z 19004KT 14/13 A3003 RMK A01 T01380129  RH  094%=      5-min Rain = 0
KPD3 161056Z 19005KT 14/13 A3003 RMK A01 T01370129  RH  095%=      5-min Rain = 0
KPD3 161057Z 22006KT 14/14 A3003 RMK A01 T01420138  RH  097%=      5-min Rain = 0
KPD3 161058Z 25005KT 15/15 A3003 RMK A01 T01510149  RH  098%=      5-min Rain = 0
KPD3 161059Z 29003KT 15/15 A3002 RMK A01 T01540151  RH  098%=      5-min Rain = 0
KPD3 161100Z 30004KT 16/15 A3002 RMK A01 T01560151  RH  097%=      5-min Rain = 0
KPD3 161101Z 31005KT 16/15 A3002 RMK A01 T01560148  RH  095%=      5-min Rain = 0
KPD3 161102Z 31005KT 16/15 A3002 RMK A01 T01560147  RH  095%=      5-min Rain = 0
KPD3 161103Z 31005KT 16/15 A3002 RMK A01 T01560147  RH  094%=      5-min Rain = 0
KPD3 161104Z 31004KT 16/15 A3002 RMK A01 T01560147  RH  094%=      5-min Rain = 0
KPD3 161105Z 32004KT 16/15 A3002 RMK A01 T01560146  RH  094%=      5-min Rain = 0
KPD3 161106Z 33005KT 16/14 A3002 RMK A01 T01550144  RH  093%=      5-min Rain = 0
KPD3 161107Z 32005KT 15/14 A3002 RMK A01 T01540143  RH  093%=      5-min Rain = 0
KPD3 161108Z 32006KT 15/14 A3002 RMK A01 T01530143  RH  094%=      5-min Rain = 0
KPD3 161109Z 32006KT 15/14 A3002 RMK A01 T01520142  RH  094%=      5-min Rain = 0
KPD3 161110Z 32006KT 15/14 A3002 RMK A01 T01510142  RH  094%=      5-min Rain = 0
KPD3 161111Z 32006KT 15/14 A3002 RMK A01 T01510143  RH  095%=      5-min Rain = 0
KPD3 161112Z 32006KT 15/14 A3002 RMK A01 T01510143  RH  095%=      5-min Rain = 0
KPD3 161113Z 33006KT 15/14 A3002 RMK A01 T01510143  RH  095%=      5-min Rain = 0
KPD3 161114Z 33006KT 15/14 A3002 RMK A01 T01510144  RH  095%=      5-min Rain = 0
KPD3 161115Z 33006KT 15/14 A3002 RMK A01 T01510144  RH  096%=      5-min Rain = 0
KPD3 161116Z 33006KT 15/15 A3002 RMK A01 T01520145  RH  096%=      5-min Rain = 0
KPD3 161117Z 33006KT 15/15 A3002 RMK A01 T01520146  RH  096%=      5-min Rain = 0
KPD3 161118Z 33006KT 15/15 A3002 RMK A01 T01530146  RH  096%=      5-min Rain = 0
KPD3 161119Z 33006KT 15/15 A3002 RMK A01 T01530146  RH  096%=      5-min Rain = 0
KPD3 161120Z 32006KT 15/15 A3001 RMK A01 T01530145  RH  095%=      5-min Rain = 0
KPD3 161121Z 32005KT 15/15 A3001 RMK A01 T01530145  RH  095%=      5-min Rain = 0
KPD3 161122Z 32005KT 15/14 A3001 RMK A01 T01520144  RH  095%=      5-min Rain = 0
KPD3 161123Z 30003KT 15/14 A3001 RMK A01 T01510143  RH  095%=      5-min Rain = 0
KPD3 161124Z 26002KT 15/14 A3001 RMK A01 T01500142  RH  095%=      5-min Rain = 0
KPD3 161125Z 25002KT 15/14 A3001 RMK A01 T01480138  RH  094%=      5-min Rain = 0
KPD3 161126Z 26002KT 15/14 A3001 RMK A01 T01460136  RH  094%=      5-min Rain = 0
KPD3 161127Z 27002KT 15/14 A3001 RMK A01 T01450138  RH  095%=      5-min Rain = 0
KPD3 161128Z 29003KT 15/14 A3001 RMK A01 T01460139  RH  096%=      5-min Rain = 0
KPD3 161129Z 30004KT 15/14 A3001 RMK A01 T01460140  RH  096%=      5-min Rain = 0
KPD3 161130Z 31004KT 15/14 A3001 RMK A01 T01460140  RH  096%=      5-min Rain = 0
KPD3 161131Z 30004KT 15/14 A3001 RMK A01 T01460140  RH  096%=      5-min Rain = 0
KPD3 161132Z 29003KT 15/14 A3002 RMK A01 T01450139  RH  096%=      5-min Rain = 0
KPD3 161133Z 28004KT 15/14 A3002 RMK A01 T01450139  RH  096%=      5-min Rain = 0
KPD3 161134Z 28004KT 15/14 A3002 RMK A01 T01450139  RH  096%=      5-min Rain = 0
KPD3 161135Z 28003KT 15/14 A3002 RMK A01 T01450139  RH  096%=      5-min Rain = 0
KPD3 161136Z 29003KT 14/14 A3002 RMK A01 T01440138  RH  096%=      5-min Rain = 0
KPD3 161137Z 30004KT 14/14 A3002 RMK A01 T01440138  RH  096%=      5-min Rain = 0
KPD3 161138Z 31004KT 14/14 A3002 RMK A01 T01440138  RH  097%=      5-min Rain = 0
KPD3 161139Z 31004KT 14/14 A3001 RMK A01 T01440138  RH  097%=      5-min Rain = 0
KPD3 161140Z 31004KT 14/14 A3001 RMK A01 T01430138  RH  096%=      5-min Rain = 0
KPD3 161141Z 32004KT 14/14 A3001 RMK A01 T01420137  RH  096%=      5-min Rain = 0
KPD3 161142Z 31004KT 14/14 A3001 RMK A01 T01420136  RH  096%=      5-min Rain = 0
KPD3 161143Z 31005KT 14/14 A3001 RMK A01 T01410136  RH  096%=      5-min Rain = 0
KPD3 161144Z 31005KT 14/14 A3001 RMK A01 T01410136  RH  097%=      5-min Rain = 0
KPD3 161145Z 31006KT 14/14 A3001 RMK A01 T01410136  RH  097%=      5-min Rain = 0
KPD3 161146Z 31006KT 14/14 A3001 RMK A01 T01410136  RH  097%=      5-min Rain = 0
KPD3 161147Z 31006KT 14/14 A3001 RMK A01 T01420137  RH  097%=      5-min Rain = 0
KPD3 161148Z 31006KT 14/14 A3002 RMK A01 T01420137  RH  097%=      5-min Rain = 0
KPD3 161149Z 31006KT 14/14 A3002 RMK A01 T01420138  RH  097%=      5-min Rain = 0
KPD3 161150Z 31006KT 14/14 A3002 RMK A01 T01440140  RH  097%=      5-min Rain = 0
KPD3 161151Z 31005KT 15/14 A3002 RMK A01 T01450141  RH  098%=      5-min Rain = 0
KPD3 161152Z 31005KT 15/14 A3002 RMK A01 T01460143  RH  098%=      5-min Rain = 0
KPD3 161153Z 30005KT 15/14 A3002 RMK A01 T01470144  RH  098%=      5-min Rain = 0
KPD3 161154Z 30005KT 15/15 A3002 RMK A01 T01480145  RH  098%=      5-min Rain = 0
KPD3 161155Z 30005KT 15/15 A3002 RMK A01 T01490146  RH  098%=      5-min Rain = 0
KPD3 161156Z 29005KT 15/15 A3002 RMK A01 T01500146  RH  098%=      5-min Rain = 0
KPD3 161157Z 29004KT 15/15 A3002 RMK A01 T01510147  RH  098%=      5-min Rain = 0
KPD3 161158Z 29004KT 15/15 A3002 RMK A01 T01510147  RH  098%=      5-min Rain = 0
KPD3 161159Z 29004KT 15/15 A3002 RMK A01 T01520148  RH  098%=      5-min Rain = 0
KPD3 161200Z 29004KT 15/15 A3002 RMK A01 T01510147  RH  097%=      5-min Rain = 0
KPD3 161201Z 29004KT 15/15 A3002 RMK A01 T01510147  RH  097%=      5-min Rain = 0
KPD3 161202Z 29004KT 15/15 A3002 RMK A01 T01520147  RH  097%=      5-min Rain = 0
KPD3 161203Z 27003KT 15/15 A3003 RMK A01 T01520148  RH  097%=      5-min Rain = 0
KPD3 161204Z 26004KT 15/15 A3003 RMK A01 T01520148  RH  097%=      5-min Rain = 0
KPD3 161205Z 26004KT 15/15 A3003 RMK A01 T01530148  RH  097%=      5-min Rain = 0
KPD3 161206Z 25005KT 15/15 A3003 RMK A01 T01530148  RH  097%=      5-min Rain = 0
KPD3 161207Z 26005KT 15/15 A3003 RMK A01 T01530148  RH  097%=      5-min Rain = 0
KPD3 161208Z 25005KT 15/15 A3003 RMK A01 T01540149  RH  097%=      5-min Rain = 0
KPD3 161209Z 26005KT 16/15 A3003 RMK A01 T01550150  RH  097%=      5-min Rain = 0
KPD3 161210Z 26005KT 16/15 A3003 RMK A01 T01560151  RH  097%=      5-min Rain = 0
KPD3 161211Z 27005KT 16/15 A3003 RMK A01 T01570151  RH  097%=      5-min Rain = 0
KPD3 161212Z 27004KT 16/15 A3002 RMK A01 T01570152  RH  096%=      5-min Rain = 0
KPD3 161213Z 26005KT 16/15 A3002 RMK A01 T01580152  RH  096%=      5-min Rain = 0
KPD3 161214Z 26006KT 16/15 A3003 RMK A01 T01590152  RH  096%=      5-min Rain = 0
KPD3 161215Z 26006KT 16/15 A3003 RMK A01 T01590153  RH  096%=      5-min Rain = 0
KPD3 161216Z 26006KT 16/15 A3003 RMK A01 T01600153  RH  096%=      5-min Rain = 0
KPD3 161217Z 26007KT 16/15 A3003 RMK A01 T01600153  RH  095%=      5-min Rain = 0
KPD3 161218Z 26007KT 16/15 A3003 RMK A01 T01610153  RH  095%=      5-min Rain = 0
KPD3 161219Z 25007KT 16/15 A3003 RMK A01 T01610153  RH  095%=      5-min Rain = 0
KPD3 161220Z 26007KT 16/15 A3003 RMK A01 T01610153  RH  095%=      5-min Rain = 0
KPD3 161221Z 25007KT 16/15 A3003 RMK A01 T01620153  RH  095%=      5-min Rain = 0
KPD3 161222Z 25008KT 16/15 A3003 RMK A01 T01620152  RH  094%=      5-min Rain = 0
KPD3 161223Z 25008KT 16/15 A3003 RMK A01 T01620152  RH  094%=      5-min Rain = 0
KPD3 161224Z 25009KT 16/15 A3003 RMK A01 T01620152  RH  094%=      5-min Rain = 0
KPD3 161225Z 25009KT 16/15 A3003 RMK A01 T01630153  RH  094%=      5-min Rain = 0
KPD3 161226Z 25011KT 16/15 A3003 RMK A01 T01630153  RH  094%=      5-min Rain = 0
KPD3 161227Z 25010KT 16/15 A3004 RMK A01 T01640153  RH  093%=      5-min Rain = 0
KPD3 161228Z 25011KT 16/15 A3004 RMK A01 T01640153  RH  093%=      5-min Rain = 0
KPD3 161229Z 25010KT 17/15 A3004 RMK A01 T01650152  RH  092%=      5-min Rain = 0
KPD3 161230Z 24009KT 17/15 A3004 RMK A01 T01660152  RH  091%=      5-min Rain = 0
KPD3 161231Z 24009KT 17/15 A3004 RMK A01 T01670151  RH  090%=      5-min Rain = 0
KPD3 161232Z 24008KT 17/15 A3003 RMK A01 T01680151  RH  090%=      5-min Rain = 0
KPD3 161233Z 25008KT 17/15 A3004 RMK A01 T01680150  RH  089%=      5-min Rain = 0
KPD3 161234Z 25007KT 17/15 A3004 RMK A01 T01670149  RH  089%=      5-min Rain = 0
KPD3 161235Z 25008KT 17/15 A3004 RMK A01 T01670149  RH  089%=      5-min Rain = 0
KPD3 161236Z 25009KT 17/15 A3004 RMK A01 T01660147  RH  088%=      5-min Rain = 0
KPD3 161237Z 24011KT 17/15 A3004 RMK A01 T01650145  RH  088%=      5-min Rain = 0
KPD3 161238Z 24009KT 16/14 A3004 RMK A01 T01640143  RH  088%=      5-min Rain = 0
KPD3 161239Z 24010KT 16/14 A3004 RMK A01 T01630143  RH  088%=      5-min Rain = 0
KPD3 161240Z 25009KT 16/14 A3004 RMK A01 T01620143  RH  088%=      5-min Rain = 0
KPD3 161241Z 25008KT 16/14 A3004 RMK A01 T01620143  RH  089%=      5-min Rain = 0
KPD3 161242Z 25007KT 16/14 A3004 RMK A01 T01620144  RH  089%=      5-min Rain = 0
KPD3 161243Z 26007KT 16/14 A3005 RMK A01 T01620144  RH  089%=      5-min Rain = 0
KPD3 161244Z 26007KT 16/15 A3005 RMK A01 T01620145  RH  090%=      5-min Rain = 0
KPD3 161245Z 26007KT 16/15 A3005 RMK A01 T01620146  RH  090%=      5-min Rain = 0
KPD3 161246Z 26006KT 16/15 A3005 RMK A01 T01620146  RH  090%=      5-min Rain = 0
KPD3 161247Z 25006KT 16/15 A3005 RMK A01 T01630147  RH  090%=      5-min Rain = 0
KPD3 161248Z 25006KT 16/15 A3006 RMK A01 T01630147  RH  090%=      5-min Rain = 0
KPD3 161249Z 26006KT 16/15 A3006 RMK A01 T01630147  RH  090%=      5-min Rain = 0
KPD3 161250Z 26006KT 16/15 A3006 RMK A01 T01640147  RH  090%=      5-min Rain = 0
KPD3 161251Z 26006KT 16/15 A3006 RMK A01 T01640147  RH  089%=      5-min Rain = 0
KPD3 161252Z 25006KT 17/15 A3006 RMK A01 T01650147  RH  089%=      5-min Rain = 0
KPD3 161253Z 24006KT 17/15 A3006 RMK A01 T01660147  RH  089%=      5-min Rain = 0
KPD3 161254Z 25005KT 17/15 A3006 RMK A01 T01660147  RH  089%=      5-min Rain = 0
KPD3 161255Z 26005KT 17/15 A3006 RMK A01 T01660147  RH  088%=      5-min Rain = 0
KPD3 161256Z 26005KT 17/15 A3006 RMK A01 T01660147  RH  088%=      5-min Rain = 0
KPD3 161257Z 26005KT 17/15 A3006 RMK A01 T01660146  RH  088%=      5-min Rain = 0
KPD3 161258Z 24005KT 17/15 A3006 RMK A01 T01660147  RH  088%=      5-min Rain = 0
KPD3 161259Z 23005KT 17/15 A3006 RMK A01 T01670147  RH  088%=      5-min Rain = 0
KPD3 161300Z 23003KT 17/15 A3006 RMK A01 T01670147  RH  088%=      5-min Rain = 0
KPD3 161301Z 21001KT 17/15 A3006 RMK A01 T01670148  RH  089%=      5-min Rain = 0
KPD3 161302Z 09002KT 17/15 A3007 RMK A01 T01670148  RH  089%=      5-min Rain = 0
KPD3 161303Z 08003KT 17/15 A3007 RMK A01 T01660149  RH  089%=      5-min Rain = 0
KPD3 161304Z 09003KT 17/15 A3007 RMK A01 T01660149  RH  090%=      5-min Rain = 0
KPD3 161305Z 09003KT 17/15 A3007 RMK A01 T01650149  RH  090%=      5-min Rain = 0
KPD3 161306Z 10003KT 16/15 A3007 RMK A01 T01640149  RH  090%=      5-min Rain = 0
KPD3 161307Z 10004KT 16/15 A3007 RMK A01 T01640148  RH  090%=      5-min Rain = 0
KPD3 161308Z 07003KT 16/15 A3007 RMK A01 T01640146  RH  089%=      5-min Rain = 0
KPD3 161309Z 33001KT 16/15 A3007 RMK A01 T01640145  RH  089%=      5-min Rain = 0
KPD3 161310Z 28002KT 17/15 A3007 RMK A01 T01650145  RH  088%=      5-min Rain = 0
KPD3 161311Z 24003KT 17/15 A3007 RMK A01 T01650146  RH  088%=      5-min Rain = 0
KPD3 161312Z 24005KT 17/15 A3007 RMK A01 T01660146  RH  088%=      5-min Rain = 0
KPD3 161313Z 25006KT 17/15 A3007 RMK A01 T01660146  RH  088%=      5-min Rain = 0
KPD3 161314Z 25005KT 17/15 A3007 RMK A01 T01660145  RH  087%=      5-min Rain = 0
KPD3 161315Z 24005KT 17/14 A3007 RMK A01 T01670144  RH  086%=      5-min Rain = 0
KPD3 161316Z 22003KT 17/14 A3007 RMK A01 T01670144  RH  086%=      5-min Rain = 0
KPD3 161317Z 14001KT 17/15 A3007 RMK A01 T01680145  RH  086%=      5-min Rain = 0
KPD3 161318Z 07003KT 17/15 A3007 RMK A01 T01670146  RH  087%=      5-min Rain = 0
KPD3 161319Z 06002KT 17/15 A3007 RMK A01 T01680146  RH  087%=      5-min Rain = 0
KPD3 161320Z 07002KT 17/15 A3008 RMK A01 T01670146  RH  087%=      5-min Rain = 0
KPD3 161321Z 06002KT 17/15 A3008 RMK A01 T01670146  RH  087%=      5-min Rain = 0
KPD3 161322Z 06002KT 17/14 A3008 RMK A01 T01670144  RH  086%=      5-min Rain = 0
KPD3 161323Z 06004KT 17/15 A3008 RMK A01 T01670146  RH  087%=      5-min Rain = 0
KPD3 161324Z 06005KT 17/15 A3008 RMK A01 T01670146  RH  088%=      5-min Rain = 0
KPD3 161325Z 08005KT 17/15 A3008 RMK A01 T01660147  RH  088%=      5-min Rain = 0
KPD3 161326Z 08005KT 17/15 A3008 RMK A01 T01650147  RH  089%=      5-min Rain = 0
KPD3 161327Z 08005KT 16/15 A3008 RMK A01 T01640147  RH  090%=      5-min Rain = 0
KPD3 161328Z 09005KT 16/15 A3008 RMK A01 T01640147  RH  090%=      5-min Rain = 0
KPD3 161329Z 09004KT 16/15 A3008 RMK A01 T01630146  RH  090%=      5-min Rain = 0
KPD3 161330Z 09004KT 16/15 A3008 RMK A01 T01630146  RH  090%=      5-min Rain = 0
KPD3 161331Z 09005KT 16/15 A3008 RMK A01 T01630146  RH  089%=      5-min Rain = 0
KPD3 161332Z 10004KT 16/15 A3008 RMK A01 T01640146  RH  089%=      5-min Rain = 0
KPD3 161333Z 10004KT 16/15 A3008 RMK A01 T01640146  RH  089%=      5-min Rain = 0
KPD3 161334Z 10004KT 16/15 A3008 RMK A01 T01640147  RH  090%=      5-min Rain = 0
KPD3 161335Z 10003KT 16/15 A3008 RMK A01 T01640147  RH  090%=      5-min Rain = 0
KPD3 161336Z 10003KT 16/15 A3008 RMK A01 T01640147  RH  089%=      5-min Rain = 0
KPD3 161337Z 10003KT 16/15 A3008 RMK A01 T01640147  RH  089%=      5-min Rain = 0
KPD3 161338Z 11003KT 16/15 A3008 RMK A01 T01640147  RH  089%=      5-min Rain = 0
KPD3 161339Z 12003KT 17/15 A3008 RMK A01 T01650146  RH  089%=      5-min Rain = 0
KPD3 161340Z 12004KT 17/15 A3007 RMK A01 T01650146  RH  089%=      5-min Rain = 0
KPD3 161341Z 12003KT 17/15 A3007 RMK A01 T01650146  RH  089%=      5-min Rain = 0
KPD3 161342Z 13003KT 17/15 A3007 RMK A01 T01650147  RH  089%=      5-min Rain = 0
KPD3 161343Z 15003KT 17/15 A3007 RMK A01 T01650146  RH  089%=      5-min Rain = 0
KPD3 161344Z 16004KT 17/15 A3008 RMK A01 T01660148  RH  089%=      5-min Rain = 0
KPD3 161345Z 16004KT 17/15 A3008 RMK A01 T01660149  RH  090%=      5-min Rain = 0
KPD3 161346Z 16004KT 17/15 A3008 RMK A01 T01660149  RH  090%=      5-min Rain = 0
KPD3 161347Z 15004KT 17/15 A3008 RMK A01 T01670150  RH  090%=      5-min Rain = 0
KPD3 161348Z 15003KT 17/15 A3008 RMK A01 T01670149  RH  089%=      5-min Rain = 0
KPD3 161349Z 14003KT 17/15 A3007 RMK A01 T01670149  RH  089%=      5-min Rain = 0
KPD3 161350Z 15003KT 17/15 A3008 RMK A01 T01670148  RH  088%=      5-min Rain = 0
KPD3 161351Z 16004KT 17/15 A3008 RMK A01 T01680149  RH  089%=      5-min Rain = 0
KPD3 161352Z 15004KT 17/15 A3008 RMK A01 T01680148  RH  088%=      5-min Rain = 0
KPD3 161353Z 15004KT 17/15 A3008 RMK A01 T01690148  RH  087%=      5-min Rain = 0
KPD3 161354Z 15003KT 17/15 A3007 RMK A01 T01690146  RH  086%=      5-min Rain = 0
KPD3 161355Z 16003KT 17/15 A3007 RMK A01 T01700149  RH  088%=      5-min Rain = 0
KPD3 161356Z 18004KT 17/15 A3008 RMK A01 T01710150  RH  088%=      5-min Rain = 0
KPD3 161357Z 19004KT 17/15 A3008 RMK A01 T01710147  RH  086%=      5-min Rain = 0
KPD3 161358Z 20003KT 17/15 A3008 RMK A01 T01710147  RH  086%=      5-min Rain = 0
KPD3 161359Z 21003KT 17/15 A3008 RMK A01 T01710147  RH  086%=      5-min Rain = 0
KPD3 161400Z 21004KT 17/15 A3008 RMK A01 T01720146  RH  085%=      5-min Rain = 0
KPD3 161401Z 20004KT 17/15 A3007 RMK A01 T01720145  RH  084%=      5-min Rain = 0
KPD3 161402Z 20004KT 17/15 A3007 RMK A01 T01730149  RH  086%=      5-min Rain = 0
KPD3 161403Z 20004KT 17/15 A3007 RMK A01 T01740149  RH  085%=      5-min Rain = 0
KPD3 161404Z 21004KT 17/15 A3007 RMK A01 T01740148  RH  084%=      5-min Rain = 0
KPD3 161405Z 21005KT 18/15 A3007 RMK A01 T01750148  RH  084%=      5-min Rain = 0
KPD3 161406Z 20005KT 18/15 A3007 RMK A01 T01760148  RH  083%=      5-min Rain = 0
KPD3 161407Z 21006KT 18/15 A3007 RMK A01 T01770148  RH  083%=      5-min Rain = 0
KPD3 161408Z 21006KT 18/15 A3007 RMK A01 T01770149  RH  084%=      5-min Rain = 0
KPD3 161409Z 20007KT 18/15 A3007 RMK A01 T01770146  RH  082%=      5-min Rain = 0
KPD3 161410Z 20007KT 18/14 A3007 RMK A01 T01770144  RH  081%=      5-min Rain = 0
KPD3 161411Z 20005KT 18/15 A3007 RMK A01 T01770146  RH  082%=      5-min Rain = 0
KPD3 161412Z 20006KT 18/15 A3007 RMK A01 T01770148  RH  083%=      5-min Rain = 0
KPD3 161413Z 20005KT 18/15 A3007 RMK A01 T01780146  RH  082%=      5-min Rain = 0
KPD3 161414Z 20005KT 18/15 A3007 RMK A01 T01780146  RH  082%=      5-min Rain = 0
KPD3 161415Z 20005KT 18/15 A3007 RMK A01 T01780145  RH  081%=      5-min Rain = 0
KPD3 161416Z 19005KT 18/15 A3008 RMK A01 T01780146  RH  081%=      5-min Rain = 0
KPD3 161417Z 19005KT 18/15 A3008 RMK A01 T01780148  RH  082%=      5-min Rain = 0
KPD3 161418Z 18005KT 18/15 A3008 RMK A01 T01790147  RH  082%=      5-min Rain = 0
KPD3 161419Z 19004KT 18/15 A3008 RMK A01 T01790148  RH  082%=      5-min Rain = 0
KPD3 161420Z 18004KT 18/15 A3008 RMK A01 T01790147  RH  081%=      5-min Rain = 0
KPD3 161421Z 16004KT 18/15 A3008 RMK A01 T01790149  RH  082%=      5-min Rain = 0
KPD3 161422Z 15004KT 18/15 A3008 RMK A01 T01800148  RH  082%=      5-min Rain = 0
KPD3 161423Z 15004KT 18/15 A3008 RMK A01 T01800148  RH  081%=      5-min Rain = 0
KPD3 161424Z 15005KT 18/15 A3008 RMK A01 T01810150  RH  082%=      5-min Rain = 0
KPD3 161425Z 14004KT 18/15 A3008 RMK A01 T01820152  RH  083%=      5-min Rain = 0
KPD3 161426Z 14004KT 18/15 A3008 RMK A01 T01820148  RH  080%=      5-min Rain = 0
KPD3 161427Z 13003KT 18/15 A3008 RMK A01 T01820148  RH  080%=      5-min Rain = 0
KPD3 161428Z 11004KT 18/15 A3008 RMK A01 T01830149  RH  080%=      5-min Rain = 0
KPD3 161429Z 12005KT 18/15 A3008 RMK A01 T01830149  RH  081%=      5-min Rain = 0
KPD3 161430Z 11004KT 18/15 A3008 RMK A01 T01840153  RH  082%=      5-min Rain = 0
KPD3 161431Z 10004KT 19/15 A3008 RMK A01 T01850154  RH  082%=      5-min Rain = 0
KPD3 161432Z 11003KT 19/15 A3008 RMK A01 T01860153  RH  081%=      5-min Rain = 0
KPD3 161433Z 11002KT 19/15 A3008 RMK A01 T01860153  RH  081%=      5-min Rain = 0
KPD3 161434Z 10004KT 19/15 A3008 RMK A01 T01870152  RH  080%=      5-min Rain = 0
KPD3 161435Z 10005KT 19/15 A3008 RMK A01 T01880153  RH  080%=      5-min Rain = 0
KPD3 161436Z 10005KT 19/15 A3008 RMK A01 T01880152  RH  079%=      5-min Rain = 0
KPD3 161437Z 09003KT 19/15 A3008 RMK A01 T01890152  RH  079%=      5-min Rain = 0
KPD3 161438Z 09005KT 19/15 A3009 RMK A01 T01890151  RH  079%=      5-min Rain = 0
KPD3 161439Z 09007KT 19/15 A3009 RMK A01 T01900154  RH  080%=      5-min Rain = 0
KPD3 161440Z 09005KT 19/15 A3009 RMK A01 T01900153  RH  079%=      5-min Rain = 0
KPD3 161441Z 08006KT 19/15 A3009 RMK A01 T01900154  RH  080%=      5-min Rain = 0
KPD3 161442Z 09005KT 19/15 A3009 RMK A01 T01900154  RH  079%=      5-min Rain = 0
KPD3 161443Z 09004KT 19/15 A3009 RMK A01 T01900153  RH  079%=      5-min Rain = 0
KPD3 161444Z 09005KT 19/15 A3009 RMK A01 T01900154  RH  079%=      5-min Rain = 0
KPD3 161445Z 09004KT 19/16 A3009 RMK A01 T01900156  RH  080%=      5-min Rain = 0
KPD3 161446Z 08005KT 19/16 A3009 RMK A01 T01910157  RH  081%=      5-min Rain = 0
KPD3 161447Z 08004KT 19/16 A3009 RMK A01 T01910157  RH  081%=      5-min Rain = 0
KPD3 161448Z 08005KT 19/16 A3009 RMK A01 T01910156  RH  080%=      5-min Rain = 0
KPD3 161449Z 09003KT 19/16 A3009 RMK A01 T01910156  RH  080%=      5-min Rain = 0
KPD3 161450Z 09003KT 19/15 A3009 RMK A01 T01900154  RH  080%=      5-min Rain = 0
KPD3 161451Z 08003KT 19/16 A3009 RMK A01 T01900155  RH  080%=      5-min Rain = 0
KPD3 161452Z 06004KT 19/16 A3009 RMK A01 T01900157  RH  081%=      5-min Rain = 0
KPD3 161453Z 07005KT 19/16 A3009 RMK A01 T01900158  RH  081%=      5-min Rain = 0
KPD3 161454Z 07004KT 19/15 A3009 RMK A01 T01900154  RH  080%=      5-min Rain = 0
KPD3 161455Z 05005KT 19/15 A3009 RMK A01 T01900154  RH  080%=      5-min Rain = 0
KPD3 161456Z 04006KT 19/16 A3009 RMK A01 T01900157  RH  082%=      5-min Rain = 0
KPD3 161457Z 04005KT 19/16 A3009 RMK A01 T01900157  RH  082%=      5-min Rain = 0
KPD3 161458Z 04006KT 19/16 A3009 RMK A01 T01900158  RH  082%=      5-min Rain = 0
KPD3 161459Z 02007KT 19/16 A3009 RMK A01 T01890158  RH  082%=      5-min Rain = 0
KPD3 161500Z 02007KT 19/16 A301 RMK A01 T01890158  RH  082%=      5-min Rain = 0
KPD3 161501Z 01006KT 19/16 A301 RMK A01 T01890159  RH  083%=      5-min Rain = 0
KPD3 161502Z 01006KT 19/16 A301 RMK A01 T01880159  RH  083%=      5-min Rain = 0
KPD3 161503Z 01007KT 19/16 A301 RMK A01 T01870159  RH  084%=      5-min Rain = 0
KPD3 161504Z 02008KT 19/16 A301 RMK A01 T01860157  RH  083%=      5-min Rain = 0
KPD3 161505Z 02008KT 19/16 A301 RMK A01 T01850156  RH  083%=      5-min Rain = 0
KPD3 161506Z 02008KT 18/16 A301 RMK A01 T01840157  RH  084%=      5-min Rain = 0
KPD3 161507Z 02009KT 18/16 A3009 RMK A01 T01840158  RH  085%=      5-min Rain = 0
KPD3 161508Z 02009KT 18/16 A3009 RMK A01 T01830159  RH  085%=      5-min Rain = 0
KPD3 161509Z 02009KT 18/16 A3009 RMK A01 T01830159  RH  086%=      5-min Rain = 0
KPD3 161510Z 03007KT 18/16 A3009 RMK A01 T01830159  RH  086%=      5-min Rain = 0
KPD3 161511Z 02006KT 18/16 A301 RMK A01 T01830158  RH  086%=      5-min Rain = 0
KPD3 161512Z 02004KT 18/16 A301 RMK A01 T01820157  RH  085%=      5-min Rain = 0
KPD3 161513Z 03003KT 18/16 A301 RMK A01 T01820157  RH  085%=      5-min Rain = 0
KPD3 161514Z 03003KT 18/16 A301 RMK A01 T01820157  RH  085%=      5-min Rain = 0
KPD3 161515Z 03004KT 18/16 A301 RMK A01 T01820157  RH  085%=      5-min Rain = 0
KPD3 161516Z 03006KT 18/16 A3009 RMK A01 T01820157  RH  086%=      5-min Rain = 0
KPD3 161517Z 03007KT 18/16 A3009 RMK A01 T01820158  RH  086%=      5-min Rain = 0
KPD3 161518Z 03005KT 18/16 A301 RMK A01 T01830157  RH  085%=      5-min Rain = 0
KPD3 161519Z 02005KT 18/16 A301 RMK A01 T01820156  RH  085%=      5-min Rain = 0
KPD3 161520Z 01004KT 18/16 A301 RMK A01 T01830157  RH  085%=      5-min Rain = 0
KPD3 161521Z 00004KT 18/16 A301 RMK A01 T01830156  RH  084%=      5-min Rain = 0
KPD3 161522Z 36005KT 18/16 A301 RMK A01 T01830156  RH  084%=      5-min Rain = 0
KPD3 161523Z 36005KT 18/16 A301 RMK A01 T01830157  RH  084%=      5-min Rain = 0
KPD3 161524Z 01005KT 18/16 A301 RMK A01 T01840159  RH  085%=      5-min Rain = 0
KPD3 161525Z 01005KT 19/16 A301 RMK A01 T01850159  RH  085%=      5-min Rain = 0
KPD3 161526Z 02005KT 19/16 A301 RMK A01 T01860158  RH  084%=      5-min Rain = 0
KPD3 161527Z 02004KT 19/16 A301 RMK A01 T01860157  RH  083%=      5-min Rain = 0
KPD3 161528Z 02004KT 19/16 A301 RMK A01 T01870159  RH  084%=      5-min Rain = 0
KPD3 161529Z 03007KT 19/16 A301 RMK A01 T01870155  RH  082%=      5-min Rain = 0
KPD3 161530Z 03007KT 19/15 A301 RMK A01 T01870153  RH  081%=      5-min Rain = 0
KPD3 161531Z 04006KT 19/15 A301 RMK A01 T01870152  RH  080%=      5-min Rain = 0
KPD3 161532Z 04005KT 19/15 A301 RMK A01 T01870153  RH  081%=      5-min Rain = 0
KPD3 161533Z 04005KT 19/15 A301 RMK A01 T01870153  RH  080%=      5-min Rain = 0
KPD3 161534Z 05003KT 19/15 A301 RMK A01 T01880152  RH  080%=      5-min Rain = 0
KPD3 161535Z 05002KT 19/15 A301 RMK A01 T01890149  RH  078%=      5-min Rain = 0
KPD3 161536Z 04000KT 19/15 A301 RMK A01 T01900150  RH  078%=      5-min Rain = 0
KPD3 161537Z 16001KT 19/15 A301 RMK A01 T01920151  RH  077%=      5-min Rain = 0
KPD3 161538Z 17003KT 19/15 A301 RMK A01 T01930150  RH  076%=      5-min Rain = 0
KPD3 161539Z 14003KT 19/15 A3009 RMK A01 T01940151  RH  076%=      5-min Rain = 0
KPD3 161540Z 13004KT 20/15 A3009 RMK A01 T01950151  RH  076%=      5-min Rain = 0
KPD3 161541Z 11004KT 20/15 A3009 RMK A01 T01960147  RH  073%=      5-min Rain = 0
KPD3 161542Z 11004KT 20/15 A3009 RMK A01 T01970149  RH  074%=      5-min Rain = 0
KPD3 161543Z 10005KT 20/15 A3008 RMK A01 T01970147  RH  073%=      5-min Rain = 0
KPD3 161544Z 12005KT 20/15 A3008 RMK A01 T01980146  RH  072%=      5-min Rain = 0
KPD3 161545Z 15006KT 20/15 A3008 RMK A01 T01990150  RH  073%=      5-min Rain = 0
KPD3 161546Z 16006KT 20/15 A3008 RMK A01 T02000150  RH  073%=      5-min Rain = 0
KPD3 161547Z 17007KT 20/15 A3008 RMK A01 T02020153  RH  073%=      5-min Rain = 0
KPD3 161548Z 17006KT 20/16 A3008 RMK A01 T02040155  RH  073%=      5-min Rain = 0
KPD3 161549Z 15007KT 21/15 A3008 RMK A01 T02060152  RH  071%=      5-min Rain = 0
KPD3 161550Z 15007KT 21/15 A3008 RMK A01 T02080152  RH  070%=      5-min Rain = 0
KPD3 161551Z 15007KT 21/16 A3008 RMK A01 T02100159  RH  072%=      5-min Rain = 0
KPD3 161552Z 15007KT 21/16 A3008 RMK A01 T02120160  RH  072%=      5-min Rain = 0
KPD3 161553Z 14008KT 21/15 A3008 RMK A01 T02140154  RH  069%=      5-min Rain = 0
KPD3 161554Z 15007KT 21/15 A3008 RMK A01 T02140152  RH  068%=      5-min Rain = 0
KPD3 161555Z 14006KT 21/15 A3008 RMK A01 T02140150  RH  067%=      5-min Rain = 0
KPD3 161556Z 15005KT 21/15 A3008 RMK A01 T02130151  RH  068%=      5-min Rain = 0
KPD3 161557Z 13007KT 21/15 A3008 RMK A01 T02120154  RH  069%=      5-min Rain = 0
KPD3 161558Z 14007KT 22/15 A3008 RMK A01 T02150153  RH  068%=      5-min Rain = 0
KPD3 161559Z 15007KT 22/15 A3008 RMK A01 T02160149  RH  066%=      5-min Rain = 0
KPD3 161600Z 12008KT 22/15 A3008 RMK A01 T02160151  RH  067%=      5-min Rain = 0
KPD3 161601Z 13008KT 22/16 A3008 RMK A01 T02160156  RH  069%=      5-min Rain = 0
KPD3 161602Z 13006KT 22/15 A3008 RMK A01 T02170152  RH  067%=      5-min Rain = 0
KPD3 161603Z 13006KT 22/15 A3008 RMK A01 T02160153  RH  067%=      5-min Rain = 0
KPD3 161604Z 14008KT 22/16 A3008 RMK A01 T02170155  RH  068%=      5-min Rain = 0
KPD3 161605Z 14008KT 22/16 A3008 RMK A01 T02190156  RH  068%=      5-min Rain = 0
KPD3 161606Z 15007KT 22/16 A3008 RMK A01 T02200156  RH  067%=      5-min Rain = 0
KPD3 161607Z 15007KT 22/16 A3008 RMK A01 T02210155  RH  066%=      5-min Rain = 0
KPD3 161608Z 14010KT 22/16 A3008 RMK A01 T02210156  RH  067%=      5-min Rain = 0
KPD3 161609Z 15009KT 22/16 A3008 RMK A01 T02210155  RH  066%=      5-min Rain = 0
KPD3 161610Z 15007KT 22/16 A3008 RMK A01 T02200157  RH  068%=      5-min Rain = 0
KPD3 161611Z 14009KT 22/16 A3008 RMK A01 T02220160  RH  068%=      5-min Rain = 0
KPD3 161612Z 15011KT 22/16 A3008 RMK A01 T02240162  RH  068%=      5-min Rain = 0
KPD3 161613Z 15009KT 23/16 A3008 RMK A01 T02260158  RH  065%=      5-min Rain = 0
KPD3 161614Z 14010KT 23/16 A3008 RMK A01 T02250159  RH  066%=      5-min Rain = 0
KPD3 161615Z 15010KT 23/16 A3008 RMK A01 T02250159  RH  066%=      5-min Rain = 0
KPD3 161616Z 16010KT 23/16 A3008 RMK A01 T02250157  RH  066%=      5-min Rain = 0
KPD3 161617Z 15012KT 23/16 A3009 RMK A01 T02260162  RH  067%=      5-min Rain = 0
KPD3 161618Z 14011KT 23/16 A3009 RMK A01 T02270159  RH  065%=      5-min Rain = 0
KPD3 161619Z 15011KT 23/16 A3009 RMK A01 T02270161  RH  066%=      5-min Rain = 0
KPD3 161620Z 14013KT 23/16 A3009 RMK A01 T02280161  RH  066%=      5-min Rain = 0
KPD3 161621Z 14012KT 23/16 A3009 RMK A01 T02270160  RH  066%=      5-min Rain = 0
KPD3 161622Z 16013KT 23/16 A3009 RMK A01 T02280160  RH  065%=      5-min Rain = 0
KPD3 161623Z 16011KT 23/16 A3009 RMK A01 T02280157  RH  064%=      5-min Rain = 0
KPD3 161624Z 15011KT 23/16 A3008 RMK A01 T02270160  RH  066%=      5-min Rain = 0
KPD3 161625Z 14011KT 23/16 A3008 RMK A01 T02310162  RH  065%=      5-min Rain = 0
KPD3 161626Z 16010KT 23/16 A3008 RMK A01 T02310161  RH  064%=      5-min Rain = 0
KPD3 161627Z 13011KT 23/16 A3008 RMK A01 T02310164  RH  066%=      5-min Rain = 0
KPD3 161628Z 14011KT 23/16 A3008 RMK A01 T02330162  RH  064%=      5-min Rain = 0
KPD3 161629Z 15009KT 24/16 A3008 RMK A01 T02350164  RH  064%=      5-min Rain = 0
KPD3 161630Z 15011G16KT 24/16 A3008 RMK A01 T02350159  RH  063%=      5-min Rain = 0
KPD3 161631Z 15011KT 23/16 A3008 RMK A01 T02330158  RH  063%=      5-min Rain = 0
KPD3 161632Z 14011KT 23/16 A3008 RMK A01 T02330159  RH  063%=      5-min Rain = 0
KPD3 161633Z 14013KT 23/16 A3008 RMK A01 T02330159  RH  063%=      5-min Rain = 0
KPD3 161634Z 15011KT 23/16 A3008 RMK A01 T02300156  RH  063%=      5-min Rain = 0
KPD3 161635Z 14011KT 23/16 A3008 RMK A01 T02270158  RH  065%=      5-min Rain = 0
KPD3 161636Z 13010KT 23/16 A3008 RMK A01 T02280159  RH  065%=      5-min Rain = 0
KPD3 161637Z 14012KT 23/16 A3008 RMK A01 T02300158  RH  064%=      5-min Rain = 0
KPD3 161638Z 14014KT 23/16 A3008 RMK A01 T02340157  RH  062%=      5-min Rain = 0
KPD3 161639Z 15011KT 24/16 A3008 RMK A01 T02360158  RH  062%=      5-min Rain = 0
KPD3 161640Z 13012KT 24/16 A3008 RMK A01 T02360159  RH  062%=      5-min Rain = 0
KPD3 161641Z 13012KT 24/16 A3008 RMK A01 T02350158  RH  062%=      5-min Rain = 0
KPD3 161642Z 13010KT 23/16 A3008 RMK A01 T02330159  RH  063%=      5-min Rain = 0
KPD3 161643Z 15009KT 23/16 A3008 RMK A01 T02320159  RH  063%=      5-min Rain = 0
KPD3 161644Z 14012KT 23/16 A3008 RMK A01 T02330158  RH  063%=      5-min Rain = 0
KPD3 161645Z 14011KT 23/16 A3008 RMK A01 T02340157  RH  062%=      5-min Rain = 0
KPD3 161646Z 13010KT 23/16 A3008 RMK A01 T02340156  RH  062%=      5-min Rain = 0
KPD3 161647Z 14010KT 24/16 A3008 RMK A01 T02350160  RH  063%=      5-min Rain = 0
KPD3 161648Z 14011KT 24/16 A3008 RMK A01 T02380160  RH  061%=      5-min Rain = 0
KPD3 161649Z 15011KT 24/16 A3008 RMK A01 T02390161  RH  061%=      5-min Rain = 0
KPD3 161650Z 15010KT 24/16 A3008 RMK A01 T02390159  RH  061%=      5-min Rain = 0
KPD3 161651Z 16011KT 24/16 A3008 RMK A01 T02380159  RH  062%=      5-min Rain = 0
KPD3 161652Z 13010KT 24/16 A3008 RMK A01 T02380159  RH  061%=      5-min Rain = 0
KPD3 161653Z 13009KT 24/16 A3008 RMK A01 T02380159  RH  061%=      5-min Rain = 0
KPD3 161654Z 15010KT 24/16 A3008 RMK A01 T02390160  RH  061%=      5-min Rain = 0
KPD3 161655Z 16012KT 24/16 A3008 RMK A01 T02420161  RH  060%=      5-min Rain = 0
KPD3 161656Z 16010KT 24/16 A3008 RMK A01 T02440159  RH  059%=      5-min Rain = 0
KPD3 161657Z 15009KT 24/16 A3008 RMK A01 T02410158  RH  060%=      5-min Rain = 0
KPD3 161658Z 16009KT 24/16 A3008 RMK A01 T02390160  RH  061%=      5-min Rain = 0
KPD3 161659Z 16006KT 24/16 A3008 RMK A01 T02380159  RH  061%=      5-min Rain = 0
KPD3 161700Z 14010KT 24/16 A3008 RMK A01 T02370159  RH  062%=      5-min Rain = 0
KPD3 161701Z 14008KT 24/16 A3008 RMK A01 T02370158  RH  061%=      5-min Rain = 0
KPD3 161702Z 16007KT 24/16 A3008 RMK A01 T02380159  RH  061%=      5-min Rain = 0
KPD3 161703Z 13011G17KT 24/16 A3008 RMK A01 T02390164  RH  063%=      5-min Rain = 0
KPD3 161704Z 15011KT 24/16 A3008 RMK A01 T02430164  RH  061%=      5-min Rain = 0
KPD3 161705Z 15009KT 25/16 A3008 RMK A01 T02480164  RH  060%=      5-min Rain = 0
KPD3 161706Z 14007KT 25/16 A3008 RMK A01 T02480163  RH  059%=      5-min Rain = 0
KPD3 161707Z 14008KT 25/16 A3008 RMK A01 T02450161  RH  059%=      5-min Rain = 0
KPD3 161708Z 15008KT 24/16 A3008 RMK A01 T02410159  RH  060%=      5-min Rain = 0
KPD3 161709Z 14008KT 24/16 A3008 RMK A01 T02410159  RH  060%=      5-min Rain = 0
KPD3 161710Z 14009G15KT 24/16 A3008 RMK A01 T02440164  RH  061%=      5-min Rain = 0
KPD3 161711Z 13009KT 25/17 A3008 RMK A01 T02460165  RH  061%=      5-min Rain = 0
KPD3 161712Z 13009KT 25/17 A3008 RMK A01 T02450165  RH  061%=      5-min Rain = 0
KPD3 161713Z 15011KT 24/16 A3008 RMK A01 T02440164  RH  061%=      5-min Rain = 0
KPD3 161714Z 17011KT 25/15 A3008 RMK A01 T02470151  RH  055%=      5-min Rain = 0
KPD3 161715Z 15010G15KT 25/15 A3008 RMK A01 T02480151  RH  055%=      5-min Rain = 0
KPD3 161716Z 16011KT 25/15 A3008 RMK A01 T02500150  RH  054%=      5-min Rain = 0
KPD3 161717Z 15009KT 25/15 A3008 RMK A01 T02490150  RH  054%=      5-min Rain = 0
KPD3 161718Z 13008KT 25/15 A3008 RMK A01 T02480150  RH  054%=      5-min Rain = 0
KPD3 161719Z 14007KT 25/15 A3008 RMK A01 T02450150  RH  055%=      5-min Rain = 0
KPD3 161720Z 18012KT 24/15 A3008 RMK A01 T02440151  RH  056%=      5-min Rain = 0
KPD3 161721Z 17010KT 25/15 A3008 RMK A01 T02460150  RH  055%=      5-min Rain = 0
KPD3 161722Z 17009KT 25/15 A3008 RMK A01 T02470151  RH  055%=      5-min Rain = 0
KPD3 161723Z 17009KT 25/15 A3007 RMK A01 T02450152  RH  056%=      5-min Rain = 0
KPD3 161724Z 13006KT 25/15 A3007 RMK A01 T02450153  RH  056%=      5-min Rain = 0
KPD3 161725Z 10004KT 25/15 A3007 RMK A01 T02450153  RH  057%=      5-min Rain = 0
KPD3 161726Z 14008KT 24/16 A3007 RMK A01 T02420155  RH  058%=      5-min Rain = 0
KPD3 161727Z 15009G14KT 25/16 A3007 RMK A01 T02450155  RH  057%=      5-min Rain = 0
KPD3 161728Z 15007KT 25/16 A3007 RMK A01 T02490156  RH  056%=      5-min Rain = 0
KPD3 161729Z 18008G15KT 25/16 A3007 RMK A01 T02530156  RH  055%=      5-min Rain = 0
KPD3 161730Z 18014KT 26/15 A3007 RMK A01 T02580154  RH  053%=      5-min Rain = 0
KPD3 161731Z 18009KT 26/15 A3007 RMK A01 T02550150  RH  052%=      5-min Rain = 0
KPD3 161732Z 16007KT 25/16 A3007 RMK A01 T02530155  RH  054%=      5-min Rain = 0
KPD3 161733Z 15005KT 26/15 A3007 RMK A01 T02550153  RH  053%=      5-min Rain = 0
KPD3 161734Z 15002KT 25/15 A3007 RMK A01 T02530151  RH  053%=      5-min Rain = 0
KPD3 161735Z 15008KT 25/15 A3007 RMK A01 T02500153  RH  055%=      5-min Rain = 0
KPD3 161736Z 14010G15KT 25/15 A3007 RMK A01 T02500154  RH  055%=      5-min Rain = 0
KPD3 161737Z 14012KT 25/16 A3007 RMK A01 T02510156  RH  056%=      5-min Rain = 0
KPD3 161738Z 12008KT 25/16 A3007 RMK A01 T02530156  RH  055%=      5-min Rain = 0
KPD3 161739Z 12009KT 25/16 A3006 RMK A01 T02530156  RH  055%=      5-min Rain = 0
KPD3 161740Z 14008KT 25/16 A3006 RMK A01 T02530156  RH  055%=      5-min Rain = 0
KPD3 161741Z 15007KT 26/16 A3006 RMK A01 T02550158  RH  055%=      5-min Rain = 0
KPD3 161742Z 14007KT 26/16 A3006 RMK A01 T02580157  RH  054%=      5-min Rain = 0
KPD3 161743Z 19007KT 26/16 A3006 RMK A01 T02610158  RH  053%=      5-min Rain = 0
KPD3 161744Z 15007G12KT 26/16 A3006 RMK A01 T02620156  RH  052%=      5-min Rain = 0
KPD3 161745Z 14008KT 26/16 A3006 RMK A01 T02620157  RH  053%=      5-min Rain = 0
KPD3 161746Z 12008KT 26/16 A3006 RMK A01 T02610155  RH  052%=      5-min Rain = 0
KPD3 161747Z 14008G14KT 26/16 A3006 RMK A01 T02560156  RH  054%=      5-min Rain = 0
KPD3 161748Z 13010KT 26/16 A3006 RMK A01 T02570159  RH  055%=      5-min Rain = 0
KPD3 161749Z 13010KT 26/16 A3006 RMK A01 T02580160  RH  055%=      5-min Rain = 0
KPD3 161750Z 13010KT 26/16 A3006 RMK A01 T02570159  RH  055%=      5-min Rain = 0
KPD3 161751Z 14013KT 26/16 A3005 RMK A01 T02590156  RH  053%=      5-min Rain = 0
KPD3 161752Z 14010KT 26/16 A3006 RMK A01 T02630156  RH  052%=      5-min Rain = 0
KPD3 161753Z 12007G12KT 27/16 A3006 RMK A01 T02650155  RH  051%=      5-min Rain = 0
KPD3 161754Z 15005KT 26/16 A3005 RMK A01 T02620156  RH  052%=      5-min Rain = 0
KPD3 161755Z 12003KT 26/16 A3005 RMK A01 T02620156  RH  052%=      5-min Rain = 0
KPD3 161756Z 15007KT 26/16 A3005 RMK A01 T02640158  RH  052%=      5-min Rain = 0
KPD3 161757Z 15013KT 27/16 A3005 RMK A01 T02660157  RH  051%=      5-min Rain = 0
KPD3 161758Z 15011KT 27/16 A3005 RMK A01 T02650158  RH  052%=      5-min Rain = 0
KPD3 161759Z 15009KT 26/16 A3005 RMK A01 T02610158  RH  053%=      5-min Rain = 0
KPD3 161800Z 14008KT 26/16 A3005 RMK A01 T02570158  RH  054%=      5-min Rain = 0
KPD3 161801Z 15009KT 26/16 A3005 RMK A01 T02590159  RH  054%=      5-min Rain = 0
KPD3 161802Z 16008KT 26/16 A3005 RMK A01 T02620157  RH  052%=      5-min Rain = 0
KPD3 161803Z 19003G8KT 26/15 A3005 RMK A01 T02630153  RH  051%=      5-min Rain = 0
KPD3 161804Z 17005KT 26/16 A3005 RMK A01 T02590157  RH  053%=      5-min Rain = 0
KPD3 161805Z 16007KT 26/16 A3005 RMK A01 T02590157  RH  053%=      5-min Rain = 0
KPD3 161806Z 13008KT 26/16 A3005 RMK A01 T02570159  RH  055%=      5-min Rain = 0
KPD3 161807Z 15014KT 26/16 A3005 RMK A01 T02570156  RH  054%=      5-min Rain = 0
KPD3 161808Z 17009KT 26/16 A3005 RMK A01 T02560156  RH  054%=      5-min Rain = 0
KPD3 161809Z 17008KT 26/16 A3005 RMK A01 T02560157  RH  054%=      5-min Rain = 0
KPD3 161810Z 15012KT 26/16 A3005 RMK A01 T02600161  RH  054%=      5-min Rain = 0
KPD3 161811Z 16008G13KT 26/16 A3004 RMK A01 T02630159  RH  053%=      5-min Rain = 0
KPD3 161812Z 15013KT 26/16 A3004 RMK A01 T02630158  RH  052%=      5-min Rain = 0
KPD3 161813Z 15011KT 27/16 A3004 RMK A01 T02650157  RH  051%=      5-min Rain = 0
KPD3 161814Z 16016KT 27/16 A3004 RMK A01 T02680158  RH  051%=      5-min Rain = 0
KPD3 161815Z 16013KT 27/16 A3004 RMK A01 T02710155  RH  049%=      5-min Rain = 0
KPD3 161816Z 16010KT 27/16 A3004 RMK A01 T02690155  RH  050%=      5-min Rain = 0
KPD3 161817Z 14010KT 27/16 A3004 RMK A01 T02670156  RH  050%=      5-min Rain = 0
KPD3 161818Z 16008KT 27/16 A3004 RMK A01 T02660155  RH  051%=      5-min Rain = 0
KPD3 161819Z 15011KT 27/15 A3004 RMK A01 T02650154  RH  051%=      5-min Rain = 0
KPD3 161820Z 13010KT 27/15 A3004 RMK A01 T02650154  RH  050%=      5-min Rain = 0
KPD3 161821Z 14007KT 27/15 A3004 RMK A01 T02650152  RH  050%=      5-min Rain = 0
KPD3 161822Z 12007KT 26/15 A3004 RMK A01 T02620152  RH  050%=      5-min Rain = 0
KPD3 161823Z 11008KT 26/15 A3004 RMK A01 T02610154  RH  051%=      5-min Rain = 0
KPD3 161824Z 16007KT 26/15 A3004 RMK A01 T02640152  RH  050%=      5-min Rain = 0
KPD3 161825Z 18005KT 26/15 A3004 RMK A01 T02640151  RH  050%=      5-min Rain = 0
KPD3 161826Z 15009KT 27/15 A3004 RMK A01 T02650151  RH  050%=      5-min Rain = 0
KPD3 161827Z 16008KT 27/15 A3003 RMK A01 T02660149  RH  049%=      5-min Rain = 0
KPD3 161828Z 19009KT 26/15 A3003 RMK A01 T02640150  RH  049%=      5-min Rain = 0
KPD3 161829Z 16011KT 26/15 A3003 RMK A01 T02640149  RH  049%=      5-min Rain = 0
KPD3 161830Z 14011KT 27/15 A3003 RMK A01 T02650149  RH  049%=      5-min Rain = 0
KPD3 161831Z 13007KT 27/15 A3003 RMK A01 T02670149  RH  048%=      5-min Rain = 0
KPD3 161832Z 16011KT 27/15 A3003 RMK A01 T02690151  RH  048%=      5-min Rain = 0
KPD3 161833Z 19010KT 27/15 A3003 RMK A01 T02720147  RH  047%=      5-min Rain = 0
KPD3 161834Z 18009KT 27/15 A3003 RMK A01 T02740149  RH  047%=      5-min Rain = 0
KPD3 161835Z 15010KT 27/15 A3003 RMK A01 T02740147  RH  046%=      5-min Rain = 0
KPD3 161836Z 17013KT 27/15 A3003 RMK A01 T02720148  RH  047%=      5-min Rain = 0
KPD3 161837Z 18007G12KT 27/15 A3003 RMK A01 T02730147  RH  046%=      5-min Rain = 0
KPD3 161838Z 18007KT 27/15 A3003 RMK A01 T02730149  RH  047%=      5-min Rain = 0
KPD3 161839Z 18012KT 28/15 A3003 RMK A01 T02760149  RH  046%=      5-min Rain = 0
KPD3 161840Z 18014KT 28/15 A3003 RMK A01 T02800148  RH  045%=      5-min Rain = 0
KPD3 161841Z 18011KT 28/14 A3003 RMK A01 T02760143  RH  044%=      5-min Rain = 0
KPD3 161842Z 20005KT 27/14 A3003 RMK A01 T02670142  RH  046%=      5-min Rain = 0
KPD3 161843Z 17010G16KT 26/15 A3002 RMK A01 T02640146  RH  048%=      5-min Rain = 0
KPD3 161844Z 14013KT 27/15 A3003 RMK A01 T02660148  RH  048%=      5-min Rain = 0
KPD3 161845Z 15011KT 27/15 A3003 RMK A01 T02680147  RH  048%=      5-min Rain = 0
KPD3 161846Z 17006KT 27/15 A3002 RMK A01 T02680148  RH  048%=      5-min Rain = 0
KPD3 161847Z 19006KT 27/15 A3002 RMK A01 T02690151  RH  048%=      5-min Rain = 0
KPD3 161848Z 15007KT 27/15 A3002 RMK A01 T02730151  RH  047%=      5-min Rain = 0
KPD3 161849Z 16010KT 28/15 A3002 RMK A01 T02790151  RH  046%=      5-min Rain = 0
KPD3 161850Z 19009G15KT 28/15 A3002 RMK A01 T02820149  RH  044%=      5-min Rain = 0
KPD3 161851Z 20009KT 29/15 A3002 RMK A01 T02860152  RH  044%=      5-min Rain = 0
KPD3 161852Z 16009KT 29/15 A3002 RMK A01 T02890151  RH  043%=      5-min Rain = 0
KPD3 161853Z 17011KT 29/15 A3002 RMK A01 T02890149  RH  043%=      5-min Rain = 0
KPD3 161854Z 18006KT 28/15 A3002 RMK A01 T02830146  RH  043%=      5-min Rain = 0
KPD3 161855Z 17005KT 28/15 A3002 RMK A01 T02780147  RH  045%=      5-min Rain = 0
KPD3 161856Z 18010KT 28/15 A3002 RMK A01 T02770146  RH  045%=      5-min Rain = 0
KPD3 161857Z 18010KT 28/15 A3002 RMK A01 T02760147  RH  045%=      5-min Rain = 0
KPD3 161858Z 17010KT 28/15 A3002 RMK A01 T02770148  RH  045%=      5-min Rain = 0
KPD3 161859Z 16012KT 28/15 A3002 RMK A01 T02820147  RH  044%=      5-min Rain = 0
KPD3 161900Z 17015KT 28/15 A3002 RMK A01 T02820146  RH  043%=      5-min Rain = 0
KPD3 161901Z 17012KT 28/15 A3002 RMK A01 T02810146  RH  044%=      5-min Rain = 0
KPD3 161902Z 17015KT 28/15 A3002 RMK A01 T02810146  RH  044%=      5-min Rain = 0
KPD3 161903Z 16011KT 28/15 A3002 RMK A01 T02820147  RH  044%=      5-min Rain = 0
KPD3 161904Z 18010KT 29/15 A3002 RMK A01 T02870151  RH  044%=      5-min Rain = 0
KPD3 161905Z 18009KT 29/15 A3002 RMK A01 T02910149  RH  042%=      5-min Rain = 0
KPD3 161906Z 15006KT 29/15 A3002 RMK A01 T02850145  RH  042%=      5-min Rain = 0
KPD3 161907Z 15003KT 28/15 A3002 RMK A01 T02800147  RH  044%=      5-min Rain = 0
KPD3 161908Z 15009KT 28/15 A3002 RMK A01 T02800149  RH  045%=      5-min Rain = 0
KPD3 161909Z 16010KT 28/15 A3002 RMK A01 T02840147  RH  043%=      5-min Rain = 0
KPD3 161910Z 14011KT 28/15 A3002 RMK A01 T02830146  RH  043%=      5-min Rain = 0
KPD3 161911Z 15010KT 28/15 A3002 RMK A01 T02810147  RH  044%=      5-min Rain = 0
KPD3 161912Z 16010KT 28/15 A3002 RMK A01 T02820148  RH  044%=      5-min Rain = 0
KPD3 161913Z 17011KT 29/15 A3002 RMK A01 T02860149  RH  043%=      5-min Rain = 0
KPD3 161914Z 18011KT 29/15 A3002 RMK A01 T02890149  RH  043%=      5-min Rain = 0
KPD3 161915Z 19007KT 29/15 A3002 RMK A01 T02870146  RH  042%=      5-min Rain = 0
KPD3 161916Z 19006KT 28/15 A3001 RMK A01 T02820146  RH  043%=      5-min Rain = 0
KPD3 161917Z 19005KT 28/15 A3001 RMK A01 T02830148  RH  044%=      5-min Rain = 0
KPD3 161918Z 18010KT 28/15 A3001 RMK A01 T02840148  RH  043%=      5-min Rain = 0
KPD3 161919Z 18010KT 29/15 A3001 RMK A01 T02880150  RH  043%=      5-min Rain = 0
KPD3 161920Z 16012KT 29/15 A3001 RMK A01 T02930148  RH  041%=      5-min Rain = 0
KPD3 161921Z 16010KT 29/15 A3001 RMK A01 T02900147  RH  042%=      5-min Rain = 0
KPD3 161922Z 14006G11KT 29/15 A3001 RMK A01 T02850145  RH  042%=      5-min Rain = 0
KPD3 161923Z 20010KT 28/15 A3001 RMK A01 T02820148  RH  044%=      5-min Rain = 0
KPD3 161924Z 19011KT 28/14 A3001 RMK A01 T02840144  RH  042%=      5-min Rain = 0
KPD3 161925Z 18010KT 28/14 A3001 RMK A01 T02810143  RH  043%=      5-min Rain = 0
KPD3 161926Z 18009KT 28/15 A3001 RMK A01 T02790145  RH  044%=      5-min Rain = 0
KPD3 161927Z 17011KT 28/15 A3001 RMK A01 T02830147  RH  044%=      5-min Rain = 0
KPD3 161928Z 16013KT 29/15 A3001 RMK A01 T02850146  RH  043%=      5-min Rain = 0
KPD3 161929Z 17010KT 29/15 A3001 RMK A01 T02860146  RH  042%=      5-min Rain = 0
KPD3 161930Z 17012KT 29/15 A3001 RMK A01 T02860146  RH  043%=      5-min Rain = 0
KPD3 161931Z 17012KT 29/15 A3001 RMK A01 T02890148  RH  042%=      5-min Rain = 0
KPD3 161932Z 16009KT 29/15 A3001 RMK A01 T02910147  RH  041%=      5-min Rain = 0
KPD3 161933Z 16007KT 29/15 A3001 RMK A01 T02880147  RH  042%=      5-min Rain = 0
KPD3 161934Z 16007KT 28/14 A3001 RMK A01 T02830144  RH  043%=      5-min Rain = 0
KPD3 161935Z 18010KT 28/15 A3001 RMK A01 T02800145  RH  044%=      5-min Rain = 0
KPD3 161936Z 17010KT 28/15 A3001 RMK A01 T02800145  RH  044%=      5-min Rain = 0
KPD3 161937Z 17009KT 28/15 A3001 RMK A01 T02790145  RH  044%=      5-min Rain = 0
KPD3 161938Z 18006KT 28/15 A3001 RMK A01 T02770145  RH  044%=      5-min Rain = 0
KPD3 161939Z 19008KT 28/15 A3001 RMK A01 T02790147  RH  045%=      5-min Rain = 0
KPD3 161940Z 21010KT 28/15 A3001 RMK A01 T02800145  RH  044%=      5-min Rain = 0
KPD3 161941Z 19016G21KT 28/15 A3001 RMK A01 T02810146  RH  044%=      5-min Rain = 0
KPD3 161942Z 18011KT 29/15 A3001 RMK A01 T02880149  RH  043%=      5-min Rain = 0
KPD3 161943Z 19014G19KT 29/15 A3001 RMK A01 T02910146  RH  041%=      5-min Rain = 0
KPD3 161944Z 20011KT 29/14 A3001 RMK A01 T02890144  RH  041%=      5-min Rain = 0
KPD3 161945Z 21008KT 29/14 A3001 RMK A01 T02850143  RH  042%=      5-min Rain = 0
KPD3 161946Z 22013KT 29/15 A3001 RMK A01 T02850145  RH  042%=      5-min Rain = 0
KPD3 161947Z 21015KT 29/15 A3001 RMK A01 T02880146  RH  042%=      5-min Rain = 0
KPD3 161948Z 22012KT 29/15 A3001 RMK A01 T02920147  RH  041%=      5-min Rain = 0
KPD3 161949Z 22011KT 29/15 A3001 RMK A01 T02930145  RH  040%=      5-min Rain = 0
KPD3 161950Z 21009KT 29/15 A3001 RMK A01 T02940146  RH  041%=      5-min Rain = 0
KPD3 161951Z 20008KT 29/15 A3001 RMK A01 T02940147  RH  041%=      5-min Rain = 0
KPD3 161952Z 21008KT 30/15 A3001 RMK A01 T02980148  RH  040%=      5-min Rain = 0
KPD3 161953Z 18008KT 30/15 A3001 RMK A01 T02970147  RH  040%=      5-min Rain = 0
KPD3 161954Z 18009KT 30/15 A3001 RMK A01 T02970148  RH  040%=      5-min Rain = 0
KPD3 161955Z 18011KT 29/14 A3001 RMK A01 T02930144  RH  040%=      5-min Rain = 0
KPD3 161956Z 16008KT 29/14 A3001 RMK A01 T02880144  RH  041%=      5-min Rain = 0
KPD3 161957Z 15009KT 29/15 A3001 RMK A01 T02870146  RH  042%=      5-min Rain = 0
KPD3 161958Z 13008KT 29/15 A3001 RMK A01 T02860145  RH  042%=      5-min Rain = 0
KPD3 161959Z 17010G17KT 29/15 A3001 RMK A01 T02850145  RH  043%=      5-min Rain = 0
KPD3 162000Z 19017KT 29/15 A3001 RMK A01 T02880147  RH  042%=      5-min Rain = 0
KPD3 162001Z 18013KT 29/15 A3001 RMK A01 T02930146  RH  041%=      5-min Rain = 0
KPD3 162002Z 17013KT 30/15 A3001 RMK A01 T02980147  RH  040%=      5-min Rain = 0
KPD3 162003Z 17014KT 30/15 A3001 RMK A01 T03010145  RH  039%=      5-min Rain = 0
KPD3 162004Z 17011KT 30/14 A3001 RMK A01 T02950143  RH  039%=      5-min Rain = 0
KPD3 162005Z 18010KT 29/14 A3001 RMK A01 T02900142  RH  040%=      5-min Rain = 0
KPD3 162006Z 18008KT 29/14 A3001 RMK A01 T02850141  RH  041%=      5-min Rain = 0
KPD3 162007Z 16009KT 28/14 A3001 RMK A01 T02830141  RH  042%=      5-min Rain = 0
KPD3 162008Z 15011KT 28/14 A3001 RMK A01 T02820140  RH  042%=      5-min Rain = 0
KPD3 162009Z 17015KT 28/14 A3001 RMK A01 T02820142  RH  042%=      5-min Rain = 0
KPD3 162010Z 16015KT 28/14 A3001 RMK A01 T02820142  RH  042%=      5-min Rain = 0
KPD3 162011Z 18010KT 28/14 A3001 RMK A01 T02820143  RH  043%=      5-min Rain = 0
KPD3 162012Z 18012KT 29/15 A3001 RMK A01 T02850145  RH  043%=      5-min Rain = 0
KPD3 162013Z 17009KT 29/15 A3001 RMK A01 T02880145  RH  041%=      5-min Rain = 0
KPD3 162014Z 18010KT 29/15 A3001 RMK A01 T02900145  RH  041%=      5-min Rain = 0
KPD3 162015Z 19008KT 29/14 A3001 RMK A01 T02910144  RH  041%=      5-min Rain = 0
KPD3 162016Z 18010KT 29/15 A3001 RMK A01 T02940146  RH  040%=      5-min Rain = 0
KPD3 162017Z 18010KT 30/15 A3001 RMK A01 T02980147  RH  040%=      5-min Rain = 0
KPD3 162018Z 17010KT 30/15 A3001 RMK A01 T03010145  RH  039%=      5-min Rain = 0
KPD3 162019Z 17011KT 30/14 A3001 RMK A01 T02980143  RH  039%=      5-min Rain = 0
KPD3 162020Z 17014KT 29/14 A3001 RMK A01 T02930141  RH  039%=      5-min Rain = 0
KPD3 162021Z 18014KT 29/14 A3001 RMK A01 T02890142  RH  041%=      5-min Rain = 0
KPD3 162022Z 18015KT 29/14 A3001 RMK A01 T02870144  RH  042%=      5-min Rain = 0
KPD3 162023Z 17011KT 29/14 A30 RMK A01 T02890144  RH  041%=      5-min Rain = 0
KPD3 162024Z 21011KT 29/15 A3001 RMK A01 T02940148  RH  041%=      5-min Rain = 0
KPD3 162025Z 23008KT 30/15 A3001 RMK A01 T02990147  RH  040%=      5-min Rain = 0
KPD3 162026Z 21011KT 30/15 A3001 RMK A01 T03020149  RH  039%=      5-min Rain = 0
KPD3 162027Z 21010KT 30/15 A3001 RMK A01 T03020145  RH  038%=      5-min Rain = 0
KPD3 162028Z 22012KT 30/15 A3001 RMK A01 T03000146  RH  039%=      5-min Rain = 0
KPD3 162029Z 23008KT 30/15 A3001 RMK A01 T02990145  RH  039%=      5-min Rain = 0
KPD3 162030Z 22009G15KT 30/15 A3001 RMK A01 T02970145  RH  040%=      5-min Rain = 0
KPD3 162031Z 20011KT 30/15 A3001 RMK A01 T02990145  RH  039%=      5-min Rain = 0
KPD3 162032Z 20010KT 30/15 A30 RMK A01 T03000145  RH  039%=      5-min Rain = 0
KPD3 162033Z 21007KT 30/15 A30 RMK A01 T03000145  RH  039%=      5-min Rain = 0
KPD3 162034Z 24006G11KT 30/15 A30 RMK A01 T03010148  RH  039%=      5-min Rain = 0
KPD3 162035Z 23013G19KT 31/15 A30 RMK A01 T03080150  RH  038%=      5-min Rain = 0
KPD3 162036Z 22009G14KT 31/15 A30 RMK A01 T03090145  RH  037%=      5-min Rain = 0
KPD3 162037Z 20012KT 31/15 A30 RMK A01 T03050145  RH  038%=      5-min Rain = 0
KPD3 162038Z 21010KT 31/15 A30 RMK A01 T03070145  RH  037%=      5-min Rain = 0
KPD3 162039Z 18015G21KT 31/15 A30 RMK A01 T03130148  RH  037%=      5-min Rain = 0
KPD3 162040Z 16013KT 32/15 A30 RMK A01 T03150145  RH  036%=      5-min Rain = 0
KPD3 162041Z 16010KT 31/14 A30 RMK A01 T03090144  RH  037%=      5-min Rain = 0
KPD3 162042Z 18010KT 31/15 A30 RMK A01 T03090145  RH  037%=      5-min Rain = 0
KPD3 162043Z 20009KT 31/15 A30 RMK A01 T03090145  RH  037%=      5-min Rain = 0
KPD3 162044Z 21006G12KT 31/14 A30 RMK A01 T03090144  RH  037%=      5-min Rain = 0
KPD3 162045Z 18009KT 31/14 A30 RMK A01 T03060143  RH  037%=      5-min Rain = 0
KPD3 162046Z 21009KT 30/14 A30 RMK A01 T03030143  RH  038%=      5-min Rain = 0
KPD3 162047Z 21013KT 30/14 A30 RMK A01 T03010141  RH  038%=      5-min Rain = 0
KPD3 162048Z 20013KT 30/14 A30 RMK A01 T03000142  RH  038%=      5-min Rain = 0
KPD3 162049Z 19009KT 30/14 A30 RMK A01 T03030144  RH  038%=      5-min Rain = 0
KPD3 162050Z 22011KT 31/15 A30 RMK A01 T03070146  RH  038%=      5-min Rain = 0
KPD3 162051Z 18008KT 31/15 A30 RMK A01 T03100145  RH  037%=      5-min Rain = 0
KPD3 162052Z 19010KT 31/14 A30 RMK A01 T03080142  RH  036%=      5-min Rain = 0
KPD3 162053Z 20010KT 30/14 A30 RMK A01 T03020140  RH  037%=      5-min Rain = 0
KPD3 162054Z 22012KT 30/14 A30 RMK A01 T02990144  RH  039%=      5-min Rain = 0
KPD3 162055Z 21014G19KT 30/14 A30 RMK A01 T03040144  RH  038%=      5-min Rain = 0
KPD3 162056Z 21015KT 31/14 A30 RMK A01 T03060142  RH  037%=      5-min Rain = 0
KPD3 162057Z 21013KT 31/14 A30 RMK A01 T03070140  RH  036%=      5-min Rain = 0
KPD3 162058Z 22011KT 30/14 A30 RMK A01 T03040138  RH  036%=      5-min Rain = 0
KPD3 162059Z 23012KT 30/14 A30 RMK A01 T02980137  RH  037%=      5-min Rain = 0
KPD3 162100Z 22013KT 29/14 A30 RMK A01 T02940136  RH  038%=      5-min Rain = 0
KPD3 162101Z 22011KT 29/14 A30 RMK A01 T02900137  RH  039%=      5-min Rain = 0
KPD3 162102Z 22013KT 29/14 A30 RMK A01 T02900138  RH  039%=      5-min Rain = 0
KPD3 162103Z 21012KT 29/14 A30 RMK A01 T02890139  RH  040%=      5-min Rain = 0
KPD3 162104Z 21013KT 29/14 A30 RMK A01 T02880140  RH  040%=      5-min Rain = 0
KPD3 162105Z 21014KT 29/14 A30 RMK A01 T02880138  RH  040%=      5-min Rain = 0
KPD3 162106Z 21011KT 29/14 A30 RMK A01 T02890137  RH  039%=      5-min Rain = 0
KPD3 162107Z 21013KT 29/14 A30 RMK A01 T02880137  RH  039%=      5-min Rain = 0
KPD3 162108Z 20011KT 29/14 A30 RMK A01 T02870137  RH  040%=      5-min Rain = 0
KPD3 162109Z 21010KT 29/14 A2999 RMK A01 T02870138  RH  040%=      5-min Rain = 0
KPD3 162110Z 21009KT 29/14 A2999 RMK A01 T02870138  RH  040%=      5-min Rain = 0
KPD3 162111Z 22009KT 29/14 A2999 RMK A01 T02870137  RH  040%=      5-min Rain = 0
KPD3 162112Z 21008KT 29/14 A2999 RMK A01 T02880135  RH  039%=      5-min Rain = 0
KPD3 162113Z 21006KT 29/14 A2999 RMK A01 T02900140  RH  040%=      5-min Rain = 0
KPD3 162114Z 19010KT 30/14 A2999 RMK A01 T02990142  RH  038%=      5-min Rain = 0
KPD3 162115Z 19011KT 30/14 A2999 RMK A01 T03010138  RH  037%=      5-min Rain = 0
KPD3 162116Z 22010KT 30/14 A2999 RMK A01 T02990137  RH  037%=      5-min Rain = 0
KPD3 162117Z 21010KT 30/14 A2999 RMK A01 T02980137  RH  037%=      5-min Rain = 0
KPD3 162118Z 21010KT 30/14 A2999 RMK A01 T02950137  RH  038%=      5-min Rain = 0
KPD3 162119Z 21008KT 30/14 A2999 RMK A01 T02950137  RH  038%=      5-min Rain = 0
KPD3 162120Z 20009KT 29/14 A2999 RMK A01 T02920136  RH  038%=      5-min Rain = 0
KPD3 162121Z 21008KT 29/14 A2999 RMK A01 T02900135  RH  039%=      5-min Rain = 0
KPD3 162122Z 23012KT 29/14 A2999 RMK A01 T02900137  RH  039%=      5-min Rain = 0
KPD3 162123Z 21008KT 30/14 A2998 RMK A01 T02950138  RH  038%=      5-min Rain = 0
KPD3 162124Z 23010KT 30/14 A2998 RMK A01 T02980139  RH  038%=      5-min Rain = 0
KPD3 162125Z 23008KT 30/14 A2998 RMK A01 T03010139  RH  037%=      5-min Rain = 0
KPD3 162126Z 24010KT 30/14 A2998 RMK A01 T03040141  RH  037%=      5-min Rain = 0
KPD3 162127Z 23011KT 30/14 A2998 RMK A01 T03040141  RH  037%=      5-min Rain = 0
KPD3 162128Z 24010KT 30/14 A2998 RMK A01 T03020140  RH  037%=      5-min Rain = 0
KPD3 162129Z 24009KT 30/14 A2998 RMK A01 T03000139  RH  038%=      5-min Rain = 0
KPD3 162130Z 22012KT 30/14 A2998 RMK A01 T02980139  RH  038%=      5-min Rain = 0
KPD3 162131Z 20012G19KT 30/14 A2998 RMK A01 T03020136  RH  036%=      5-min Rain = 0
KPD3 162132Z 21014KT 31/13 A2998 RMK A01 T03070134  RH  035%=      5-min Rain = 0
KPD3 162133Z 21012KT 31/13 A2998 RMK A01 T03100132  RH  034%=      5-min Rain = 0
KPD3 162134Z 22010KT 31/13 A2998 RMK A01 T03110134  RH  034%=      5-min Rain = 0
KPD3 162135Z 21011KT 32/13 A2998 RMK A01 T03180134  RH  033%=      5-min Rain = 0
KPD3 162136Z 20011KT 32/13 A2998 RMK A01 T03210134  RH  032%=      5-min Rain = 0
KPD3 162137Z 21011KT 32/13 A2997 RMK A01 T03190131  RH  032%=      5-min Rain = 0
KPD3 162138Z 21012KT 32/13 A2997 RMK A01 T03170132  RH  032%=      5-min Rain = 0
KPD3 162139Z 20012KT 32/13 A2997 RMK A01 T03160131  RH  032%=      5-min Rain = 0
KPD3 162140Z 21012KT 31/13 A2997 RMK A01 T03140131  RH  033%=      5-min Rain = 0
KPD3 162141Z 22009KT 31/13 A2997 RMK A01 T03120130  RH  033%=      5-min Rain = 0
KPD3 162142Z 23010G16KT 31/13 A2997 RMK A01 T03110130  RH  033%=      5-min Rain = 0
KPD3 162143Z 24013KT 31/13 A2997 RMK A01 T03090134  RH  034%=      5-min Rain = 0
KPD3 162144Z 22010KT 31/14 A2997 RMK A01 T03090135  RH  035%=      5-min Rain = 0
KPD3 162145Z 22010KT 31/13 A2997 RMK A01 T03110134  RH  034%=      5-min Rain = 0
KPD3 162146Z 21012KT 31/13 A2997 RMK A01 T03090134  RH  034%=      5-min Rain = 0
KPD3 162147Z 20013KT 30/13 A2997 RMK A01 T03040130  RH  034%=      5-min Rain = 0
KPD3 162148Z 19012G18KT 30/13 A2997 RMK A01 T03020129  RH  034%=      5-min Rain = 0
KPD3 162149Z 19015KT 31/13 A2997 RMK A01 T03080129  RH  034%=      5-min Rain = 0
KPD3 162150Z 19012KT 31/13 A2996 RMK A01 T03090128  RH  033%=      5-min Rain = 0
KPD3 162151Z 19012KT 31/13 A2996 RMK A01 T03080128  RH  033%=      5-min Rain = 0
KPD3 162152Z 20013KT 31/13 A2996 RMK A01 T03100128  RH  033%=      5-min Rain = 0
KPD3 162153Z 21013KT 31/13 A2996 RMK A01 T03140126  RH  032%=      5-min Rain = 0
KPD3 162154Z 22012KT 31/13 A2996 RMK A01 T03140127  RH  032%=      5-min Rain = 0
KPD3 162155Z 20014KT 31/13 A2996 RMK A01 T03130127  RH  032%=      5-min Rain = 0
KPD3 162156Z 20013KT 31/13 A2996 RMK A01 T03110129  RH  033%=      5-min Rain = 0
KPD3 162157Z 20011KT 31/13 A2996 RMK A01 T03130129  RH  032%=      5-min Rain = 0
KPD3 162158Z 20011KT 31/13 A2996 RMK A01 T03130128  RH  032%=      5-min Rain = 0
KPD3 162159Z 19010KT 31/12 A2996 RMK A01 T03100124  RH  032%=      5-min Rain = 0
KPD3 162200Z 18011KT 31/12 A2996 RMK A01 T03050122  RH  033%=      5-min Rain = 0
KPD3 162201Z 18010KT 30/12 A2996 RMK A01 T03020123  RH  033%=      5-min Rain = 0
KPD3 162202Z 18009KT 30/12 A2996 RMK A01 T03000124  RH  034%=      5-min Rain = 0
KPD3 162203Z 17013KT 30/12 A2996 RMK A01 T03020123  RH  033%=      5-min Rain = 0
KPD3 162204Z 17013KT 30/12 A2996 RMK A01 T03040122  RH  033%=      5-min Rain = 0
KPD3 162205Z 19010KT 30/12 A2995 RMK A01 T03040123  RH  033%=      5-min Rain = 0
KPD3 162206Z 19011KT 30/13 A2995 RMK A01 T03040125  RH  033%=      5-min Rain = 0
KPD3 162207Z 19012KT 31/13 A2995 RMK A01 T03060126  RH  033%=      5-min Rain = 0
KPD3 162208Z 18011KT 31/13 A2995 RMK A01 T03060125  RH  033%=      5-min Rain = 0
KPD3 162209Z 19010KT 31/12 A2995 RMK A01 T03060124  RH  033%=      5-min Rain = 0
KPD3 162210Z 20009G14KT 30/12 A2995 RMK A01 T03040123  RH  033%=      5-min Rain = 0
KPD3 162211Z 19008KT 30/12 A2995 RMK A01 T03010123  RH  033%=      5-min Rain = 0
KPD3 162212Z 16012G17KT 30/12 A2995 RMK A01 T03000122  RH  034%=      5-min Rain = 0
KPD3 162213Z 18010KT 30/12 A2995 RMK A01 T02990121  RH  033%=      5-min Rain = 0
KPD3 162214Z 19010KT 30/12 A2995 RMK A01 T03010123  RH  034%=      5-min Rain = 0
KPD3 162215Z 17009G14KT 30/12 A2995 RMK A01 T03040123  RH  033%=      5-min Rain = 0
KPD3 162216Z 16013KT 31/12 A2995 RMK A01 T03080124  RH  032%=      5-min Rain = 0
KPD3 162217Z 15010KT 31/12 A2995 RMK A01 T03100122  RH  032%=      5-min Rain = 0
KPD3 162218Z 16013KT 31/12 A2995 RMK A01 T03100123  RH  032%=      5-min Rain = 0
KPD3 162219Z 17016KT 31/12 A2995 RMK A01 T03110122  RH  031%=      5-min Rain = 0
KPD3 162220Z 17011KT 31/12 A2995 RMK A01 T03120121  RH  031%=      5-min Rain = 0
KPD3 162221Z 17011KT 31/12 A2995 RMK A01 T03100121  RH  031%=      5-min Rain = 0
KPD3 162222Z 17014KT 31/12 A2995 RMK A01 T03120122  RH  031%=      5-min Rain = 0
KPD3 162223Z 17013KT 31/12 A2995 RMK A01 T03130122  RH  031%=      5-min Rain = 0
KPD3 162224Z 17010KT 31/12 A2995 RMK A01 T03120120  RH  031%=      5-min Rain = 0
KPD3 162225Z 17010KT 31/12 A2995 RMK A01 T03100120  RH  031%=      5-min Rain = 0
KPD3 162226Z 17013KT 31/12 A2995 RMK A01 T03090121  RH  032%=      5-min Rain = 0
KPD3 162227Z 18010KT 31/12 A2995 RMK A01 T03110120  RH  031%=      5-min Rain = 0
KPD3 162228Z 17010KT 31/12 A2995 RMK A01 T03100121  RH  031%=      5-min Rain = 0
KPD3 162229Z 18014KT 31/12 A2995 RMK A01 T03120122  RH  031%=      5-min Rain = 0
KPD3 162230Z 17015KT 32/12 A2995 RMK A01 T03170122  RH  030%=      5-min Rain = 0
KPD3 162231Z 18013KT 32/12 A2995 RMK A01 T03150121  RH  030%=      5-min Rain = 0
KPD3 162232Z 17009KT 31/12 A2995 RMK A01 T03120119  RH  031%=      5-min Rain = 0
KPD3 162233Z 19006G15KT 31/12 A2994 RMK A01 T03090120  RH  031%=      5-min Rain = 0
KPD3 162234Z 16013KT 31/12 A2994 RMK A01 T03110123  RH  032%=      5-min Rain = 0
KPD3 162235Z 16016G21KT 32/12 A2994 RMK A01 T03160122  RH  031%=      5-min Rain = 0
KPD3 162236Z 17017KT 32/12 A2994 RMK A01 T03160120  RH  030%=      5-min Rain = 0
KPD3 162237Z 17013KT 31/12 A2994 RMK A01 T03130119  RH  030%=      5-min Rain = 0
KPD3 162238Z 17012KT 31/12 A2994 RMK A01 T03100118  RH  031%=      5-min Rain = 0
KPD3 162239Z 16009KT 31/12 A2994 RMK A01 T03090119  RH  031%=      5-min Rain = 0
KPD3 162240Z 17012KT 31/12 A2994 RMK A01 T03080119  RH  031%=      5-min Rain = 0
KPD3 162241Z 17014KT 31/12 A2994 RMK A01 T03090120  RH  031%=      5-min Rain = 0
KPD3 162242Z 16012KT 31/12 A2994 RMK A01 T03110119  RH  031%=      5-min Rain = 0
KPD3 162243Z 17010KT 31/12 A2994 RMK A01 T03090118  RH  031%=      5-min Rain = 0
KPD3 162244Z 16012KT 31/12 A2994 RMK A01 T03080118  RH  031%=      5-min Rain = 0
KPD3 162245Z 14013KT 31/12 A2994 RMK A01 T03100119  RH  031%=      5-min Rain = 0
KPD3 162246Z 14012KT 31/12 A2994 RMK A01 T03110119  RH  031%=      5-min Rain = 0
KPD3 162247Z 15014KT 31/12 A2994 RMK A01 T03120119  RH  031%=      5-min Rain = 0
KPD3 162248Z 15014KT 31/12 A2994 RMK A01 T03120118  RH  030%=      5-min Rain = 0
KPD3 162249Z 15013KT 31/12 A2994 RMK A01 T03120117  RH  030%=      5-min Rain = 0
KPD3 162250Z 17011KT 31/12 A2994 RMK A01 T03100117  RH  030%=      5-min Rain = 0
KPD3 162251Z 18014KT 31/12 A2994 RMK A01 T03090117  RH  031%=      5-min Rain = 0
KPD3 162252Z 17016G21KT 31/12 A2994 RMK A01 T03100117  RH  030%=      5-min Rain = 0
KPD3 162253Z 16013KT 31/12 A2994 RMK A01 T03110118  RH  030%=      5-min Rain = 0
KPD3 162254Z 16013KT 31/12 A2994 RMK A01 T03130116  RH  030%=      5-min Rain = 0
KPD3 162255Z 15012G19KT 31/12 A2994 RMK A01 T03130117  RH  030%=      5-min Rain = 0
KPD3 162256Z 15014KT 31/12 A2994 RMK A01 T03140116  RH  030%=      5-min Rain = 0
KPD3 162257Z 15014KT 31/12 A2994 RMK A01 T03130116  RH  030%=      5-min Rain = 0
KPD3 162258Z 16015KT 31/12 A2994 RMK A01 T03110115  RH  030%=      5-min Rain = 0
KPD3 162259Z 17015KT 31/11 A2994 RMK A01 T03090114  RH  030%=      5-min Rain = 0
KPD3 162300Z 15016KT 31/11 A2994 RMK A01 T03090114  RH  030%=      5-min Rain = 0
KPD3 162301Z 16014KT 31/12 A2994 RMK A01 T03090115  RH  030%=      5-min Rain = 0
KPD3 162302Z 15012KT 31/11 A2994 RMK A01 T03090114  RH  030%=      5-min Rain = 0
KPD3 162303Z 14012KT 31/11 A2994 RMK A01 T03080114  RH  030%=      5-min Rain = 0
KPD3 162304Z 15012KT 31/12 A2994 RMK A01 T03090116  RH  030%=      5-min Rain = 0
KPD3 162305Z 14013KT 31/11 A2994 RMK A01 T03090114  RH  030%=      5-min Rain = 0
KPD3 162306Z 14012KT 31/11 A2994 RMK A01 T03070113  RH  030%=      5-min Rain = 0
KPD3 162307Z 14013KT 31/11 A2994 RMK A01 T03060114  RH  031%=      5-min Rain = 0
KPD3 162308Z 14013KT 31/11 A2994 RMK A01 T03060114  RH  031%=      5-min Rain = 0
KPD3 162309Z 13012KT 31/11 A2994 RMK A01 T03060114  RH  031%=      5-min Rain = 0
KPD3 162310Z 15011KT 31/12 A2994 RMK A01 T03060116  RH  031%=      5-min Rain = 0
KPD3 162311Z 14010KT 31/12 A2994 RMK A01 T03080115  RH  030%=      5-min Rain = 0
KPD3 162312Z 14011KT 31/12 A2994 RMK A01 T03080115  RH  031%=      5-min Rain = 0
KPD3 162313Z 13013KT 31/12 A2994 RMK A01 T03080117  RH  031%=      5-min Rain = 0
KPD3 162314Z 15014KT 31/12 A2994 RMK A01 T03090117  RH  031%=      5-min Rain = 0
KPD3 162315Z 15015KT 31/12 A2994 RMK A01 T03090116  RH  030%=      5-min Rain = 0
KPD3 162316Z 16014KT 31/12 A2994 RMK A01 T03080116  RH  031%=      5-min Rain = 0
KPD3 162317Z 17011KT 31/12 A2994 RMK A01 T03080116  RH  031%=      5-min Rain = 0
KPD3 162318Z 17012KT 31/12 A2994 RMK A01 T03080116  RH  031%=      5-min Rain = 0
KPD3 162319Z 16013KT 31/12 A2994 RMK A01 T03080116  RH  031%=      5-min Rain = 0
KPD3 162320Z 15015G20KT 31/12 A2994 RMK A01 T03080116  RH  031%=      5-min Rain = 0
KPD3 162321Z 15014KT 31/12 A2994 RMK A01 T03070117  RH  031%=      5-min Rain = 0
KPD3 162322Z 15015KT 31/12 A2994 RMK A01 T03070116  RH  031%=      5-min Rain = 0
KPD3 162323Z 15014KT 31/12 A2994 RMK A01 T03060116  RH  031%=      5-min Rain = 0
KPD3 162324Z 15013KT 31/12 A2994 RMK A01 T03050117  RH  031%=      5-min Rain = 0
KPD3 162325Z 15011KT 31/12 A2994 RMK A01 T03060116  RH  031%=      5-min Rain = 0
KPD3 162326Z 16012KT 31/12 A2994 RMK A01 T03070118  RH  031%=      5-min Rain = 0
KPD3 162327Z 17013KT 31/12 A2994 RMK A01 T03100118  RH  031%=      5-min Rain = 0
KPD3 162328Z 16013KT 31/12 A2994 RMK A01 T03110116  RH  030%=      5-min Rain = 0
KPD3 162329Z 15012KT 31/12 A2994 RMK A01 T03080117  RH  031%=      5-min Rain = 0
KPD3 162330Z 16013KT 31/12 A2994 RMK A01 T03070117  RH  031%=      5-min Rain = 0
KPD3 162331Z 16014KT 31/12 A2994 RMK A01 T03080116  RH  031%=      5-min Rain = 0
KPD3 162332Z 16013KT 31/12 A2994 RMK A01 T03080117  RH  031%=      5-min Rain = 0
KPD3 162333Z 15014KT 31/12 A2994 RMK A01 T03070116  RH  031%=      5-min Rain = 0
KPD3 162334Z 14011KT 31/12 A2994 RMK A01 T03060117  RH  031%=      5-min Rain = 0
KPD3 162335Z 15012KT 31/12 A2993 RMK A01 T03060118  RH  031%=      5-min Rain = 0
KPD3 162336Z 15011KT 31/12 A2993 RMK A01 T03070118  RH  031%=      5-min Rain = 0
KPD3 162337Z 14013KT 31/12 A2993 RMK A01 T03080118  RH  031%=      5-min Rain = 0
KPD3 162338Z 15014KT 31/12 A2993 RMK A01 T03080119  RH  031%=      5-min Rain = 0
KPD3 162339Z 14012KT 31/12 A2993 RMK A01 T03090119  RH  031%=      5-min Rain = 0
KPD3 162340Z 16010KT 31/12 A2993 RMK A01 T03090121  RH  031%=      5-min Rain = 0
KPD3 162341Z 14013KT 31/12 A2993 RMK A01 T03100120  RH  031%=      5-min Rain = 0
KPD3 162342Z 15014KT 31/12 A2993 RMK A01 T03100120  RH  031%=      5-min Rain = 0
KPD3 162343Z 16010KT 31/12 A2993 RMK A01 T03090120  RH  031%=      5-min Rain = 0
KPD3 162344Z 15012KT 31/12 A2993 RMK A01 T03080119  RH  031%=      5-min Rain = 0
KPD3 162345Z 16013KT 31/12 A2993 RMK A01 T03070120  RH  032%=      5-min Rain = 0
KPD3 162346Z 15015KT 31/12 A2993 RMK A01 T03070120  RH  032%=      5-min Rain = 0
KPD3 162347Z 15015KT 31/12 A2993 RMK A01 T03060120  RH  032%=      5-min Rain = 0
KPD3 162348Z 15012KT 30/12 A2993 RMK A01 T03040119  RH  032%=      5-min Rain = 0
KPD3 162349Z 13010KT 30/12 A2993 RMK A01 T03030119  RH  032%=      5-min Rain = 0
KPD3 162350Z 13015KT 30/12 A2993 RMK A01 T03030120  RH  032%=      5-min Rain = 0
KPD3 162351Z 14013KT 30/12 A2993 RMK A01 T03030120  RH  032%=      5-min Rain = 0
KPD3 162352Z 15016KT 30/12 A2993 RMK A01 T03030119  RH  032%=      5-min Rain = 0
KPD3 162353Z 15013KT 30/12 A2993 RMK A01 T03020119  RH  032%=      5-min Rain = 0
KPD3 162354Z 14012KT 30/12 A2993 RMK A01 T03020119  RH  032%=      5-min Rain = 0
KPD3 162355Z 15012KT 30/12 A2993 RMK A01 T03020119  RH  032%=      5-min Rain = 0
KPD3 162356Z 16014KT 30/12 A2993 RMK A01 T03030119  RH  032%=      5-min Rain = 0
KPD3 162357Z 16013KT 30/12 A2993 RMK A01 T03030119  RH  032%=      5-min Rain = 0
KPD3 162358Z 15012KT 30/12 A2993 RMK A01 T03030119  RH  032%=      5-min Rain = 0
KPD3 162359Z 15015KT 30/12 A2993 RMK A01 T03030119  RH  032%=      5-min Rain = 0
KPD3 170000Z 15016KT 30/12 A2993 RMK A01 T03030119  RH  032%=      5-min Rain = 0
KPD3 170001Z 15015KT 30/12 A2993 RMK A01 T03010118  RH  032%=      5-min Rain = 0
KPD3 170002Z 15016KT 30/12 A2993 RMK A01 T03010118  RH  032%=      5-min Rain = 0
KPD3 170003Z 15014KT 30/12 A2993 RMK A01 T03000117  RH  033%=      5-min Rain = 0
KPD3 170004Z 15013KT 30/12 A2993 RMK A01 T02990118  RH  033%=      5-min Rain = 0
KPD3 170005Z 14016KT 30/12 A2992 RMK A01 T03000118  RH  033%=      5-min Rain = 0
KPD3 170006Z 15014KT 30/12 A2992 RMK A01 T03000118  RH  033%=      5-min Rain = 0
KPD3 170007Z 15013KT 30/12 A2992 RMK A01 T02990119  RH  033%=      5-min Rain = 0
KPD3 170008Z 15014KT 30/12 A2992 RMK A01 T02990118  RH  033%=      5-min Rain = 0
KPD3 170009Z 15015KT 30/12 A2992 RMK A01 T02990118  RH  033%=      5-min Rain = 0
KPD3 170010Z 15014KT 30/12 A2992 RMK A01 T02990118  RH  033%=      5-min Rain = 0
KPD3 170011Z 14016KT 30/12 A2992 RMK A01 T02990118  RH  033%=      5-min Rain = 0
KPD3 170012Z 14015KT 30/12 A2992 RMK A01 T02990118  RH  033%=      5-min Rain = 0
KPD3 170013Z 15015KT 30/12 A2992 RMK A01 T02990117  RH  033%=      5-min Rain = 0
KPD3 170014Z 15015KT 30/12 A2992 RMK A01 T02980116  RH  032%=      5-min Rain = 0
KPD3 170015Z 16015KT 30/12 A2992 RMK A01 T02980116  RH  033%=      5-min Rain = 0
KPD3 170016Z 16015KT 30/12 A2992 RMK A01 T02970116  RH  033%=      5-min Rain = 0
KPD3 170017Z 14016KT 30/12 A2992 RMK A01 T02970117  RH  033%=      5-min Rain = 0
KPD3 170018Z 14014KT 30/12 A2992 RMK A01 T02970117  RH  033%=      5-min Rain = 0
KPD3 170019Z 14013KT 30/12 A2992 RMK A01 T02970116  RH  033%=      5-min Rain = 0
KPD3 170020Z 13014KT 30/12 A2993 RMK A01 T02960117  RH  033%=      5-min Rain = 0
KPD3 170021Z 14015KT 30/12 A2993 RMK A01 T02960116  RH  033%=      5-min Rain = 0
KPD3 170022Z 14016KT 30/12 A2992 RMK A01 T02960116  RH  033%=      5-min Rain = 0
KPD3 170023Z 15013KT 30/12 A2993 RMK A01 T02950116  RH  033%=      5-min Rain = 0
KPD3 170024Z 15013KT 30/12 A2993 RMK A01 T02960117  RH  033%=      5-min Rain = 0
KPD3 170025Z 15012KT 30/12 A2993 RMK A01 T02960116  RH  033%=      5-min Rain = 0
KPD3 170026Z 16011KT 30/12 A2993 RMK A01 T02960116  RH  033%=      5-min Rain = 0
KPD3 170027Z 16013KT 30/12 A2993 RMK A01 T02950115  RH  033%=      5-min Rain = 0
KPD3 170028Z 15013KT 30/12 A2993 RMK A01 T02950115  RH  033%=      5-min Rain = 0
KPD3 170029Z 14011KT 30/12 A2993 RMK A01 T02950116  RH  033%=      5-min Rain = 0
KPD3 170030Z 14015KT 30/12 A2993 RMK A01 T02950116  RH  033%=      5-min Rain = 0
KPD3 170031Z 15014KT 29/12 A2993 RMK A01 T02940115  RH  033%=      5-min Rain = 0
KPD3 170032Z 15014KT 29/12 A2993 RMK A01 T02930115  RH  033%=      5-min Rain = 0
KPD3 170033Z 15014KT 29/12 A2992 RMK A01 T02930115  RH  033%=      5-min Rain = 0
KPD3 170034Z 14014KT 29/11 A2992 RMK A01 T02930114  RH  033%=      5-min Rain = 0
KPD3 170035Z 14015KT 29/12 A2992 RMK A01 T02930115  RH  033%=      5-min Rain = 0
KPD3 170036Z 14012KT 29/11 A2992 RMK A01 T02920114  RH  033%=      5-min Rain = 0
KPD3 170037Z 15012KT 29/12 A2992 RMK A01 T02920115  RH  033%=      5-min Rain = 0
KPD3 170038Z 15012KT 29/12 A2992 RMK A01 T02920115  RH  033%=      5-min Rain = 0
KPD3 170039Z 15012KT 29/12 A2992 RMK A01 T02920115  RH  033%=      5-min Rain = 0
KPD3 170040Z 15012KT 29/12 A2992 RMK A01 T02920115  RH  034%=      5-min Rain = 0
KPD3 170041Z 16011KT 29/12 A2992 RMK A01 T02920115  RH  034%=      5-min Rain = 0
KPD3 170042Z 15013KT 29/11 A2992 RMK A01 T02910114  RH  033%=      5-min Rain = 0
KPD3 170043Z 15012KT 29/11 A2992 RMK A01 T02910113  RH  033%=      5-min Rain = 0
KPD3 170044Z 15011KT 29/11 A2992 RMK A01 T02910113  RH  033%=      5-min Rain = 0
KPD3 170045Z 15011KT 29/11 A2992 RMK A01 T02900112  RH  033%=      5-min Rain = 0
KPD3 170046Z 15010KT 29/11 A2992 RMK A01 T02900112  RH  033%=      5-min Rain = 0
KPD3 170047Z 14011KT 29/11 A2992 RMK A01 T02900112  RH  033%=      5-min Rain = 0
KPD3 170048Z 14015KT 29/11 A2992 RMK A01 T02890111  RH  033%=      5-min Rain = 0
KPD3 170049Z 14014KT 29/11 A2992 RMK A01 T02890110  RH  033%=      5-min Rain = 0
KPD3 170050Z 15012KT 29/11 A2992 RMK A01 T02880110  RH  033%=      5-min Rain = 0
KPD3 170051Z 15012KT 29/11 A2992 RMK A01 T02880111  RH  033%=      5-min Rain = 0
KPD3 170052Z 15011KT 29/11 A2993 RMK A01 T02880111  RH  033%=      5-min Rain = 0
KPD3 170053Z 15010KT 29/11 A2993 RMK A01 T02870111  RH  033%=      5-min Rain = 0
KPD3 170054Z 15010KT 29/11 A2993 RMK A01 T02870111  RH  034%=      5-min Rain = 0
KPD3 170055Z 14009KT 29/11 A2993 RMK A01 T02870112  RH  034%=      5-min Rain = 0
KPD3 170056Z 15010KT 29/11 A2993 RMK A01 T02860112  RH  034%=      5-min Rain = 0
KPD3 170057Z 14010KT 29/11 A2993 RMK A01 T02850112  RH  034%=      5-min Rain = 0
KPD3 170058Z 14010KT 29/11 A2993 RMK A01 T02850113  RH  034%=      5-min Rain = 0
KPD3 170059Z 14012KT 28/12 A2993 RMK A01 T02840115  RH  035%=      5-min Rain = 0
KPD3 170100Z 14012KT 28/12 A2993 RMK A01 T02840116  RH  035%=      5-min Rain = 0
KPD3 170101Z 14012KT 28/12 A2993 RMK A01 T02830116  RH  035%=      5-min Rain = 0
KPD3 170102Z 14010KT 28/12 A2993 RMK A01 T02830116  RH  036%=      5-min Rain = 0
KPD3 170103Z 14009KT 28/12 A2993 RMK A01 T02820117  RH  036%=      5-min Rain = 0
KPD3 170104Z 14010KT 28/12 A2993 RMK A01 T02820117  RH  036%=      5-min Rain = 0
KPD3 170105Z 14011KT 28/12 A2993 RMK A01 T02810115  RH  036%=      5-min Rain = 0
KPD3 170106Z 14012KT 28/12 A2993 RMK A01 T02810116  RH  036%=      5-min Rain = 0
KPD3 170107Z 14011KT 28/12 A2993 RMK A01 T02800116  RH  036%=      5-min Rain = 0
KPD3 170108Z 13011KT 28/12 A2993 RMK A01 T02800117  RH  036%=      5-min Rain = 0
KPD3 170109Z 12013KT 28/13 A2993 RMK A01 T02790128  RH  039%=      5-min Rain = 0
KPD3 170110Z 13012KT 28/14 A2993 RMK A01 T02770136  RH  042%=      5-min Rain = 0
KPD3 170111Z 13011KT 28/14 A2993 RMK A01 T02760139  RH  043%=      5-min Rain = 0
KPD3 170112Z 13011KT 27/14 A2993 RMK A01 T02740141  RH  044%=      5-min Rain = 0
KPD3 170113Z 13010KT 27/14 A2993 RMK A01 T02730141  RH  044%=      5-min Rain = 0
KPD3 170114Z 13009KT 27/14 A2993 RMK A01 T02720141  RH  045%=      5-min Rain = 0
KPD3 170115Z 13009KT 27/14 A2993 RMK A01 T02710142  RH  045%=      5-min Rain = 0
KPD3 170116Z 13011KT 27/14 A2993 RMK A01 T02710142  RH  045%=      5-min Rain = 0
KPD3 170117Z 12010KT 27/14 A2993 RMK A01 T02700143  RH  046%=      5-min Rain = 0
KPD3 170118Z 12012KT 27/15 A2993 RMK A01 T02690145  RH  046%=      5-min Rain = 0
KPD3 170119Z 12011KT 27/15 A2993 RMK A01 T02680146  RH  047%=      5-min Rain = 0
KPD3 170120Z 12012KT 27/15 A2993 RMK A01 T02670147  RH  048%=      5-min Rain = 0
KPD3 170121Z 12011KT 27/15 A2993 RMK A01 T02670148  RH  048%=      5-min Rain = 0
KPD3 170122Z 12011KT 27/15 A2993 RMK A01 T02660148  RH  048%=      5-min Rain = 0
KPD3 170123Z 12009KT 27/15 A2993 RMK A01 T02660148  RH  048%=      5-min Rain = 0
KPD3 170124Z 12008KT 26/15 A2993 RMK A01 T02640148  RH  049%=      5-min Rain = 0
KPD3 170125Z 12011KT 26/15 A2993 RMK A01 T02630148  RH  049%=      5-min Rain = 0
KPD3 170126Z 11010KT 26/15 A2993 RMK A01 T02620148  RH  049%=      5-min Rain = 0
KPD3 170127Z 12011KT 26/15 A2993 RMK A01 T02610148  RH  050%=      5-min Rain = 0
KPD3 170128Z 12011KT 26/15 A2993 RMK A01 T02600148  RH  050%=      5-min Rain = 0
KPD3 170129Z 12011KT 26/15 A2994 RMK A01 T02590148  RH  050%=      5-min Rain = 0
KPD3 170130Z 12011KT 26/15 A2994 RMK A01 T02590147  RH  050%=      5-min Rain = 0
KPD3 170131Z 12011KT 26/15 A2994 RMK A01 T02590147  RH  050%=      5-min Rain = 0
KPD3 170132Z 12011KT 26/15 A2994 RMK A01 T02580147  RH  050%=      5-min Rain = 0
KPD3 170133Z 12010KT 26/15 A2994 RMK A01 T02570147  RH  051%=      5-min Rain = 0
KPD3 170134Z 12009KT 26/15 A2994 RMK A01 T02560147  RH  051%=      5-min Rain = 0
KPD3 170135Z 12009KT 26/15 A2994 RMK A01 T02550147  RH  051%=      5-min Rain = 0
KPD3 170136Z 12009KT 25/15 A2994 RMK A01 T02540147  RH  051%=      5-min Rain = 0
KPD3 170137Z 12008KT 25/15 A2994 RMK A01 T02530146  RH  052%=      5-min Rain = 0
KPD3 170138Z 12008KT 25/15 A2994 RMK A01 T02510146  RH  052%=      5-min Rain = 0
KPD3 170139Z 12008KT 25/15 A2994 RMK A01 T02500146  RH  052%=      5-min Rain = 0
KPD3 170140Z 12008KT 25/15 A2994 RMK A01 T02490145  RH  053%=      5-min Rain = 0
KPD3 170141Z 12008KT 25/15 A2994 RMK A01 T02480146  RH  053%=      5-min Rain = 0
KPD3 170142Z 12008KT 25/15 A2994 RMK A01 T02480146  RH  053%=      5-min Rain = 0
KPD3 170143Z 12009KT 25/15 A2994 RMK A01 T02470146  RH  053%=      5-min Rain = 0
KPD3 170144Z 12010KT 25/15 A2994 RMK A01 T02470146  RH  053%=      5-min Rain = 0
KPD3 170145Z 12009KT 25/15 A2994 RMK A01 T02470146  RH  054%=      5-min Rain = 0
KPD3 170146Z 12010KT 25/15 A2994 RMK A01 T02470146  RH  054%=      5-min Rain = 0
KPD3 170147Z 12010KT 25/15 A2994 RMK A01 T02470146  RH  054%=      5-min Rain = 0
KPD3 170148Z 12010KT 25/15 A2994 RMK A01 T02470146  RH  053%=      5-min Rain = 0
KPD3 170149Z 12010KT 25/15 A2994 RMK A01 T02470147  RH  054%=      5-min Rain = 0
KPD3 170150Z 12010KT 25/15 A2994 RMK A01 T02460147  RH  054%=      5-min Rain = 0
KPD3 170151Z 12009KT 25/15 A2994 RMK A01 T02460147  RH  054%=      5-min Rain = 0
KPD3 170152Z 12010KT 25/15 A2994 RMK A01 T02460147  RH  054%=      5-min Rain = 0
KPD3 170153Z 13010KT 25/15 A2994 RMK A01 T02450147  RH  054%=      5-min Rain = 0
KPD3 170154Z 12010KT 25/15 A2994 RMK A01 T02450147  RH  054%=      5-min Rain = 0
KPD3 170155Z 12010KT 25/15 A2994 RMK A01 T02450147  RH  055%=      5-min Rain = 0
KPD3 170156Z 12010KT 24/15 A2994 RMK A01 T02440147  RH  055%=      5-min Rain = 0
KPD3 170157Z 13010KT 24/15 A2994 RMK A01 T02440148  RH  055%=      5-min Rain = 0
KPD3 170158Z 12009KT 24/15 A2994 RMK A01 T02440147  RH  055%=      5-min Rain = 0
KPD3 170159Z 12009KT 24/15 A2994 RMK A01 T02430147  RH  055%=      5-min Rain = 0
KPD3 170200Z 12010KT 24/15 A2994 RMK A01 T02420147  RH  055%=      5-min Rain = 0
KPD3 170201Z 12009KT 24/15 A2994 RMK A01 T02420147  RH  055%=      5-min Rain = 0
KPD3 170202Z 13009KT 24/15 A2994 RMK A01 T02410146  RH  055%=      5-min Rain = 0
KPD3 170203Z 12009KT 24/15 A2994 RMK A01 T02400146  RH  056%=      5-min Rain = 0
KPD3 170204Z 12009KT 24/15 A2994 RMK A01 T02400147  RH  056%=      5-min Rain = 0
KPD3 170205Z 12008KT 24/15 A2994 RMK A01 T02390146  RH  056%=      5-min Rain = 0
KPD3 170206Z 12009KT 24/15 A2994 RMK A01 T02380146  RH  056%=      5-min Rain = 0
KPD3 170207Z 13010KT 24/15 A2994 RMK A01 T02380145  RH  056%=      5-min Rain = 0
KPD3 170208Z 13010KT 24/15 A2995 RMK A01 T02380145  RH  056%=      5-min Rain = 0
KPD3 170209Z 13010KT 24/14 A2995 RMK A01 T02380144  RH  055%=      5-min Rain = 0
KPD3 170210Z 13010KT 24/14 A2995 RMK A01 T02390144  RH  055%=      5-min Rain = 0
KPD3 170211Z 13010KT 24/14 A2995 RMK A01 T02380143  RH  055%=      5-min Rain = 0
KPD3 170212Z 12009KT 24/14 A2995 RMK A01 T02380143  RH  055%=      5-min Rain = 0
KPD3 170213Z 12009KT 24/14 A2995 RMK A01 T02370142  RH  055%=      5-min Rain = 0
KPD3 170214Z 12009KT 24/14 A2995 RMK A01 T02370142  RH  055%=      5-min Rain = 0
KPD3 170215Z 12008KT 24/14 A2995 RMK A01 T02360142  RH  055%=      5-min Rain = 0
KPD3 170216Z 12008KT 24/14 A2995 RMK A01 T02350141  RH  056%=      5-min Rain = 0
KPD3 170217Z 12008KT 23/14 A2995 RMK A01 T02330141  RH  056%=      5-min Rain = 0
KPD3 170218Z 12008KT 23/14 A2995 RMK A01 T02320140  RH  056%=      5-min Rain = 0
KPD3 170219Z 12008KT 23/14 A2995 RMK A01 T02310140  RH  056%=      5-min Rain = 0
KPD3 170220Z 12007KT 23/14 A2995 RMK A01 T02310140  RH  056%=      5-min Rain = 0
KPD3 170221Z 12008KT 23/14 A2995 RMK A01 T02300139  RH  056%=      5-min Rain = 0
KPD3 170222Z 12008KT 23/14 A2995 RMK A01 T02300139  RH  056%=      5-min Rain = 0
KPD3 170223Z 12009KT 23/14 A2995 RMK A01 T02300139  RH  056%=      5-min Rain = 0
KPD3 170224Z 12008KT 23/14 A2995 RMK A01 T02300138  RH  056%=      5-min Rain = 0
KPD3 170225Z 12007KT 23/14 A2995 RMK A01 T02300138  RH  056%=      5-min Rain = 0
KPD3 170226Z 12008KT 23/14 A2995 RMK A01 T02290138  RH  056%=      5-min Rain = 0
KPD3 170227Z 12008KT 23/14 A2995 RMK A01 T02290138  RH  057%=      5-min Rain = 0
KPD3 170228Z 12008KT 23/14 A2995 RMK A01 T02280138  RH  057%=      5-min Rain = 0
KPD3 170229Z 12007KT 23/14 A2995 RMK A01 T02280138  RH  057%=      5-min Rain = 0
KPD3 170230Z 12008KT 23/14 A2995 RMK A01 T02270138  RH  057%=      5-min Rain = 0
KPD3 170231Z 12008KT 23/14 A2995 RMK A01 T02260138  RH  057%=      5-min Rain = 0
KPD3 170232Z 12007KT 23/14 A2995 RMK A01 T02260138  RH  057%=      5-min Rain = 0
KPD3 170233Z 12007KT 23/14 A2996 RMK A01 T02260138  RH  058%=      5-min Rain = 0
KPD3 170234Z 12008KT 23/14 A2996 RMK A01 T02260138  RH  058%=      5-min Rain = 0
KPD3 170235Z 12007KT 22/14 A2996 RMK A01 T02240138  RH  058%=      5-min Rain = 0
KPD3 170236Z 12007KT 22/14 A2996 RMK A01 T02240138  RH  058%=      5-min Rain = 0
KPD3 170237Z 12007KT 22/14 A2996 RMK A01 T02230138  RH  059%=      5-min Rain = 0
KPD3 170238Z 13008KT 22/14 A2996 RMK A01 T02230139  RH  059%=      5-min Rain = 0
KPD3 170239Z 12008KT 22/14 A2996 RMK A01 T02230139  RH  059%=      5-min Rain = 0
KPD3 170240Z 12007KT 22/14 A2996 RMK A01 T02230140  RH  059%=      5-min Rain = 0
KPD3 170241Z 12008KT 22/14 A2996 RMK A01 T02230140  RH  059%=      5-min Rain = 0
KPD3 170242Z 12007KT 22/14 A2996 RMK A01 T02230141  RH  060%=      5-min Rain = 0
KPD3 170243Z 13007KT 22/14 A2996 RMK A01 T02230141  RH  060%=      5-min Rain = 0
KPD3 170244Z 12007KT 22/14 A2996 RMK A01 T02230141  RH  060%=      5-min Rain = 0
KPD3 170245Z 12009KT 22/14 A2996 RMK A01 T02230142  RH  060%=      5-min Rain = 0
KPD3 170246Z 12009KT 22/14 A2996 RMK A01 T02230142  RH  060%=      5-min Rain = 0
KPD3 170247Z 12008KT 22/14 A2996 RMK A01 T02230142  RH  060%=      5-min Rain = 0
KPD3 170248Z 11008KT 22/14 A2996 RMK A01 T02220142  RH  060%=      5-min Rain = 0
KPD3 170249Z 12007KT 22/14 A2996 RMK A01 T02220143  RH  061%=      5-min Rain = 0
KPD3 170250Z 12008KT 22/14 A2996 RMK A01 T02210143  RH  061%=      5-min Rain = 0
KPD3 170251Z 12008KT 22/14 A2996 RMK A01 T02200143  RH  061%=      5-min Rain = 0
KPD3 170252Z 12008KT 22/14 A2996 RMK A01 T02200143  RH  062%=      5-min Rain = 0
KPD3 170253Z 12007KT 22/14 A2996 RMK A01 T02210144  RH  062%=      5-min Rain = 0
KPD3 170254Z 12008KT 22/14 A2996 RMK A01 T02210144  RH  062%=      5-min Rain = 0
KPD3 170255Z 12007KT 22/14 A2996 RMK A01 T02210144  RH  062%=      5-min Rain = 0
KPD3 170256Z 12008KT 22/14 A2996 RMK A01 T02200144  RH  062%=      5-min Rain = 0
KPD3 170257Z 12009KT 22/14 A2996 RMK A01 T02190144  RH  062%=      5-min Rain = 0
KPD3 170258Z 12008KT 22/14 A2996 RMK A01 T02190144  RH  062%=      5-min Rain = 0
KPD3 170259Z 12009KT 22/15 A2996 RMK A01 T02200145  RH  062%=      5-min Rain = 0
KPD3 170300Z 12009KT 22/15 A2996 RMK A01 T02190145  RH  063%=      5-min Rain = 0
KPD3 170301Z 12008KT 22/15 A2996 RMK A01 T02200145  RH  063%=      5-min Rain = 0
KPD3 170302Z 12008KT 22/15 A2996 RMK A01 T02190145  RH  063%=      5-min Rain = 0
KPD3 170303Z 12008KT 22/15 A2996 RMK A01 T02190145  RH  063%=      5-min Rain = 0
KPD3 170304Z 12008KT 22/15 A2996 RMK A01 T02180145  RH  063%=      5-min Rain = 0
KPD3 170305Z 12008KT 22/15 A2996 RMK A01 T02180145  RH  063%=      5-min Rain = 0
KPD3 170306Z 12008KT 22/15 A2996 RMK A01 T02180146  RH  063%=      5-min Rain = 0
KPD3 170307Z 12008KT 22/15 A2996 RMK A01 T02180146  RH  063%=      5-min Rain = 0
KPD3 170308Z 12007KT 22/15 A2996 RMK A01 T02180146  RH  064%=      5-min Rain = 0
KPD3 170309Z 12008KT 22/15 A2996 RMK A01 T02170146  RH  064%=      5-min Rain = 0
KPD3 170310Z 12007KT 22/15 A2996 RMK A01 T02170146  RH  064%=      5-min Rain = 0
KPD3 170311Z 12007KT 22/15 A2996 RMK A01 T02160146  RH  064%=      5-min Rain = 0
KPD3 170312Z 12007KT 22/15 A2996 RMK A01 T02170146  RH  064%=      5-min Rain = 0
KPD3 170313Z 12006KT 22/15 A2996 RMK A01 T02160145  RH  064%=      5-min Rain = 0
KPD3 170314Z 12006KT 22/15 A2996 RMK A01 T02150146  RH  065%=      5-min Rain = 0
KPD3 170315Z 12007KT 21/15 A2996 RMK A01 T02140145  RH  065%=      5-min Rain = 0
KPD3 170316Z 12006KT 21/15 A2996 RMK A01 T02140145  RH  065%=      5-min Rain = 0
KPD3 170317Z 12006KT 21/15 A2996 RMK A01 T02130145  RH  065%=      5-min Rain = 0
KPD3 170318Z 12007KT 21/15 A2996 RMK A01 T02140145  RH  065%=      5-min Rain = 0
KPD3 170319Z 12006KT 21/15 A2997 RMK A01 T02130145  RH  065%=      5-min Rain = 0
KPD3 170320Z 12006KT 21/15 A2997 RMK A01 T02130145  RH  065%=      5-min Rain = 0
KPD3 170321Z 12006KT 21/15 A2997 RMK A01 T02120145  RH  065%=      5-min Rain = 0
KPD3 170322Z 12005KT 21/15 A2997 RMK A01 T02120145  RH  066%=      5-min Rain = 0
KPD3 170323Z 12005KT 21/14 A2997 RMK A01 T02100144  RH  066%=      5-min Rain = 0
KPD3 170324Z 13005KT 21/14 A2997 RMK A01 T02100144  RH  066%=      5-min Rain = 0
KPD3 170325Z 13005KT 21/14 A2997 RMK A01 T02090144  RH  067%=      5-min Rain = 0
KPD3 170326Z 13005KT 21/14 A2997 RMK A01 T02080144  RH  067%=      5-min Rain = 0
KPD3 170327Z 13005KT 21/14 A2997 RMK A01 T02070144  RH  067%=      5-min Rain = 0
KPD3 170328Z 13005KT 21/14 A2997 RMK A01 T02060143  RH  067%=      5-min Rain = 0
KPD3 170329Z 13006KT 21/14 A2997 RMK A01 T02060144  RH  067%=      5-min Rain = 0
KPD3 170330Z 13006KT 21/14 A2997 RMK A01 T02050144  RH  068%=      5-min Rain = 0
KPD3 170331Z 14006KT 21/14 A2997 RMK A01 T02050144  RH  068%=      5-min Rain = 0
KPD3 170332Z 14006KT 21/14 A2997 RMK A01 T02050144  RH  068%=      5-min Rain = 0
KPD3 170333Z 14007KT 21/14 A2997 RMK A01 T02050143  RH  068%=      5-min Rain = 0
KPD3 170334Z 14007KT 20/14 A2996 RMK A01 T02040143  RH  068%=      5-min Rain = 0
KPD3 170335Z 14006KT 20/14 A2996 RMK A01 T02040143  RH  068%=      5-min Rain = 0
KPD3 170336Z 14006KT 21/14 A2996 RMK A01 T02050144  RH  068%=      5-min Rain = 0
KPD3 170337Z 14006KT 20/14 A2996 RMK A01 T02040143  RH  068%=      5-min Rain = 0
KPD3 170338Z 14007KT 20/14 A2996 RMK A01 T02040143  RH  068%=      5-min Rain = 0
KPD3 170339Z 14007KT 20/14 A2996 RMK A01 T02040143  RH  068%=      5-min Rain = 0
KPD3 170340Z 14006KT 20/14 A2996 RMK A01 T02030142  RH  068%=      5-min Rain = 0
KPD3 170341Z 14007KT 20/14 A2996 RMK A01 T02020142  RH  068%=      5-min Rain = 0
KPD3 170342Z 15006KT 20/14 A2997 RMK A01 T02010142  RH  068%=      5-min Rain = 0
KPD3 170343Z 14006KT 20/14 A2997 RMK A01 T02010142  RH  069%=      5-min Rain = 0
KPD3 170344Z 15006KT 20/14 A2997 RMK A01 T02000141  RH  069%=      5-min Rain = 0
KPD3 170345Z 15006KT 20/14 A2997 RMK A01 T02000141  RH  069%=      5-min Rain = 0
KPD3 170346Z 15006KT 20/14 A2997 RMK A01 T01990141  RH  069%=      5-min Rain = 0
KPD3 170347Z 15006KT 20/14 A2997 RMK A01 T01990141  RH  069%=      5-min Rain = 0
KPD3 170348Z 15005KT 20/14 A2997 RMK A01 T01980141  RH  069%=      5-min Rain = 0
KPD3 170349Z 16005KT 20/14 A2997 RMK A01 T01980141  RH  069%=      5-min Rain = 0
KPD3 170350Z 16005KT 20/14 A2997 RMK A01 T01970141  RH  070%=      5-min Rain = 0
KPD3 170351Z 16005KT 20/14 A2997 RMK A01 T01960141  RH  070%=      5-min Rain = 0
KPD3 170352Z 16005KT 20/14 A2997 RMK A01 T01960140  RH  070%=      5-min Rain = 0
KPD3 170353Z 16005KT 20/14 A2997 RMK A01 T01960140  RH  070%=      5-min Rain = 0
KPD3 170354Z 15004KT 20/14 A2997 RMK A01 T01950141  RH  071%=      5-min Rain = 0
KPD3 170355Z 15004KT 20/14 A2997 RMK A01 T01950141  RH  071%=      5-min Rain = 0
KPD3 170356Z 16004KT 20/14 A2997 RMK A01 T01950141  RH  071%=      5-min Rain = 0
KPD3 170357Z 16004KT 20/14 A2997 RMK A01 T01950140  RH  070%=      5-min Rain = 0
KPD3 170358Z 16004KT 20/14 A2997 RMK A01 T01950140  RH  070%=      5-min Rain = 0
KPD3 170359Z 16004KT 20/14 A2997 RMK A01 T01960140  RH  070%=      5-min Rain = 0
KPD3 170400Z 16004KT 20/14 A2997 RMK A01 T01960140  RH  070%=      5-min Rain = 0
KPD3 170401Z 16004KT 20/14 A2997 RMK A01 T01960140  RH  070%=      5-min Rain = 0
KPD3 170402Z 16004KT 20/14 A2997 RMK A01 T01960140  RH  070%=      5-min Rain = 0
KPD3 170403Z 16004KT 20/14 A2998 RMK A01 T01960140  RH  070%=      5-min Rain = 0
KPD3 170404Z 16004KT 20/14 A2998 RMK A01 T01950140  RH  070%=      5-min Rain = 0
KPD3 170405Z 16005KT 20/14 A2998 RMK A01 T01950140  RH  071%=      5-min Rain = 0
KPD3 170406Z 17005KT 20/14 A2998 RMK A01 T01950140  RH  071%=      5-min Rain = 0
KPD3 170407Z 16005KT 19/14 A2998 RMK A01 T01940139  RH  071%=      5-min Rain = 0
KPD3 170408Z 16006KT 19/14 A2998 RMK A01 T01930138  RH  071%=      5-min Rain = 0
KPD3 170409Z 16006KT 19/14 A2998 RMK A01 T01920138  RH  071%=      5-min Rain = 0
KPD3 170410Z 16006KT 19/14 A2998 RMK A01 T01900138  RH  071%=      5-min Rain = 0
KPD3 170411Z 16007KT 19/14 A2998 RMK A01 T01890138  RH  072%=      5-min Rain = 0
KPD3 170412Z 16006KT 19/14 A2998 RMK A01 T01890139  RH  072%=      5-min Rain = 0
KPD3 170413Z 16006KT 19/14 A2998 RMK A01 T01890138  RH  072%=      5-min Rain = 0
KPD3 170414Z 17006KT 19/14 A2998 RMK A01 T01880138  RH  073%=      5-min Rain = 0
KPD3 170415Z 17006KT 19/14 A2998 RMK A01 T01880138  RH  073%=      5-min Rain = 0
KPD3 170416Z 17006KT 19/14 A2998 RMK A01 T01880140  RH  073%=      5-min Rain = 0
KPD3 170417Z 17006KT 19/14 A2998 RMK A01 T01900140  RH  073%=      5-min Rain = 0
KPD3 170418Z 17006KT 19/14 A2998 RMK A01 T01910141  RH  073%=      5-min Rain = 0
KPD3 170419Z 17006KT 19/14 A2998 RMK A01 T01920142  RH  073%=      5-min Rain = 0
KPD3 170420Z 17006KT 19/14 A2998 RMK A01 T01930143  RH  073%=      5-min Rain = 0
KPD3 170421Z 16006KT 19/14 A2998 RMK A01 T01930143  RH  072%=      5-min Rain = 0
KPD3 170422Z 16006KT 19/14 A2998 RMK A01 T01920143  RH  073%=      5-min Rain = 0
KPD3 170423Z 15005KT 19/14 A2998 RMK A01 T01910143  RH  073%=      5-min Rain = 0
KPD3 170424Z 15005KT 19/14 A2998 RMK A01 T01910142  RH  074%=      5-min Rain = 0
KPD3 170425Z 16005KT 19/14 A2998 RMK A01 T01890142  RH  074%=      5-min Rain = 0
KPD3 170426Z 15005KT 19/14 A2998 RMK A01 T01890143  RH  075%=      5-min Rain = 0
KPD3 170427Z 15005KT 19/14 A2998 RMK A01 T01880143  RH  075%=      5-min Rain = 0
KPD3 170428Z 16005KT 19/14 A2998 RMK A01 T01880143  RH  075%=      5-min Rain = 0
KPD3 170429Z 16005KT 19/14 A2999 RMK A01 T01880143  RH  075%=      5-min Rain = 0
KPD3 170430Z 16005KT 19/14 A2999 RMK A01 T01870143  RH  075%=      5-min Rain = 0
KPD3 170431Z 16005KT 19/14 A2999 RMK A01 T01870143  RH  076%=      5-min Rain = 0
KPD3 170432Z 17005KT 19/14 A2999 RMK A01 T01860143  RH  076%=      5-min Rain = 0
KPD3 170433Z 17004KT 19/14 A2999 RMK A01 T01860143  RH  076%=      5-min Rain = 0
KPD3 170434Z 17004KT 19/14 A2999 RMK A01 T01850143  RH  076%=      5-min Rain = 0
KPD3 170435Z 18004KT 19/14 A2998 RMK A01 T01850143  RH  077%=      5-min Rain = 0
KPD3 170436Z 18004KT 18/14 A2998 RMK A01 T01840143  RH  077%=      5-min Rain = 0
KPD3 170437Z 18004KT 18/14 A2998 RMK A01 T01840143  RH  077%=      5-min Rain = 0
KPD3 170438Z 18004KT 18/14 A2998 RMK A01 T01840144  RH  077%=      5-min Rain = 0
KPD3 170439Z 18003KT 18/14 A2999 RMK A01 T01840144  RH  078%=      5-min Rain = 0
KPD3 170440Z 18003KT 18/14 A2998 RMK A01 T01830143  RH  077%=      5-min Rain = 0
KPD3 170441Z 19003KT 18/14 A2998 RMK A01 T01830143  RH  077%=      5-min Rain = 0
KPD3 170442Z 19003KT 18/14 A2998 RMK A01 T01820141  RH  077%=      5-min Rain = 0
KPD3 170443Z 19003KT 18/14 A2998 RMK A01 T01810141  RH  078%=      5-min Rain = 0
KPD3 170444Z 19004KT 18/14 A2998 RMK A01 T01800142  RH  078%=      5-min Rain = 0
KPD3 170445Z 19004KT 18/14 A2998 RMK A01 T01800142  RH  079%=      5-min Rain = 0
KPD3 170446Z 18004KT 18/14 A2998 RMK A01 T01800143  RH  079%=      5-min Rain = 0
KPD3 170447Z 18004KT 18/14 A2998 RMK A01 T01810143  RH  079%=      5-min Rain = 0
KPD3 170448Z 19004KT 18/14 A2998 RMK A01 T01810143  RH  078%=      5-min Rain = 0
KPD3 170449Z 19004KT 18/14 A2998 RMK A01 T01810143  RH  078%=      5-min Rain = 0
KPD3 170450Z 20004KT 18/14 A2998 RMK A01 T01810142  RH  078%=      5-min Rain = 0
KPD3 170451Z 20004KT 18/14 A2998 RMK A01 T01800141  RH  078%=      5-min Rain = 0
KPD3 170452Z 20004KT 18/14 A2998 RMK A01 T01780140  RH  078%=      5-min Rain = 0
KPD3 170453Z 20004KT 18/14 A2998 RMK A01 T01770140  RH  079%=      5-min Rain = 0
KPD3 170454Z 20003KT 18/14 A2998 RMK A01 T01760139  RH  079%=      5-min Rain = 0
KPD3 170455Z 20003KT 17/14 A2998 RMK A01 T01740138  RH  079%=      5-min Rain = 0
KPD3 170456Z 20003KT 17/14 A2998 RMK A01 T01730138  RH  080%=      5-min Rain = 0
KPD3 170457Z 20003KT 17/14 A2999 RMK A01 T01720138  RH  080%=      5-min Rain = 0
KPD3 170458Z 20003KT 17/14 A2999 RMK A01 T01720139  RH  081%=      5-min Rain = 0
KPD3 170459Z 20002KT 17/14 A2998 RMK A01 T01720140  RH  082%=      5-min Rain = 0

Page generated in 0.1855 seconds.